<?xml version='1.0' encoding='UTF-8'?>
<gpx version="1.1" creator="https://www.komoot.de" xmlns="http://www.topografix.com/GPX/1/1" xmlns:xsi="http://www.w3.org/2001/XMLSchema-instance" xsi:schemaLocation="http://www.topografix.com/GPX/1/1 http://www.topografix.com/GPX/1/1/gpx.xsd">
  <metadata>
    <name>GPX Download: Fuldaradweg – Fulda-Radweg (Fuldaradweg) Runde von Kassel Hauptbahnhof</name>
    <author>
      <link href="https://www.komoot.de">
        <text>komoot</text>
        <type>text/html</type>
      </link>
    </author>
  </metadata>
  <wpt lat="51.329334" lon="9.556797">
    <name>Fuldaschleuse Wolfsanger</name>
    <sym>Flag, Blue</sym>
  </wpt>
  <wpt lat="51.335013" lon="9.568910">
    <name>Fulda-Radweg bei Kassel</name>
    <sym>Flag, Blue</sym>
  </wpt>
  <wpt lat="51.349770" lon="9.557434">
    <name>Fuldaradweg</name>
    <sym>Flag, Blue</sym>
  </wpt>
  <wpt lat="51.358230" lon="9.549711">
    <name>Eisenbrücke (Iron Bridge)</name>
    <sym>Bridge</sym>
  </wpt>
  <wpt lat="51.370850" lon="9.576087">
    <name>Fulda-Radweg (Fuldaradweg)</name>
    <sym>Flag, Blue</sym>
  </wpt>
  <wpt lat="51.372921" lon="9.571968">
    <name>Fulda-Radweg bei Speele</name>
    <sym>Flag, Blue</sym>
  </wpt>
  <wpt lat="51.378901" lon="9.558144">
    <name>Saatberg</name>
    <sym>Flag, Blue</sym>
  </wpt>
  <wpt lat="51.381887" lon="9.558092">
    <name>Fulda-Radweg bei Speele</name>
    <sym>Flag, Blue</sym>
  </wpt>
  <wpt lat="51.431264" lon="9.529392">
    <name>Freizeitanlage Glück Auf und Zeche Kleeberg</name>
    <sym>Picnic Area</sym>
  </wpt>
  <wpt lat="51.374425" lon="9.471436">
    <name>Blick über Ahnatal in Richtung Dörnberg</name>
    <sym>Flag, Blue</sym>
  </wpt>
  <wpt lat="51.363056" lon="9.489830">
    <name>Hopfenberg</name>
    <sym>Summit</sym>
  </wpt>
  <trk>
    <name>GPX Download: Fuldaradweg – Fulda-Radweg (Fuldaradweg) Runde von Kassel Hauptbahnhof</name>
    <trkseg>
      <trkpt lat="51.314704" lon="9.504208">
        <ele>144.542558</ele>
        <time>2026-03-20T10:38:29.841Z</time>
      </trkpt>
      <trkpt lat="51.314973" lon="9.503910">
        <ele>144.542558</ele>
        <time>2026-03-20T10:38:37.367Z</time>
      </trkpt>
      <trkpt lat="51.315134" lon="9.504270">
        <ele>144.542558</ele>
        <time>2026-03-20T10:38:43.687Z</time>
      </trkpt>
      <trkpt lat="51.315286" lon="9.504610">
        <ele>144.542558</ele>
        <time>2026-03-20T10:38:49.891Z</time>
      </trkpt>
      <trkpt lat="51.315599" lon="9.505273">
        <ele>144.158952</ele>
        <time>2026-03-20T10:39:01.893Z</time>
      </trkpt>
      <trkpt lat="51.315612" lon="9.505358">
        <ele>144.115705</ele>
        <time>2026-03-20T10:39:02.924Z</time>
      </trkpt>
      <trkpt lat="51.315650" lon="9.505359">
        <ele>144.085654</ele>
        <time>2026-03-20T10:39:03.667Z</time>
      </trkpt>
      <trkpt lat="51.315669" lon="9.505360">
        <ele>144.070623</ele>
        <time>2026-03-20T10:39:04.056Z</time>
      </trkpt>
      <trkpt lat="51.315681" lon="9.505360">
        <ele>144.061134</ele>
        <time>2026-03-20T10:39:04.287Z</time>
      </trkpt>
      <trkpt lat="51.315697" lon="9.505407">
        <ele>144.034685</ele>
        <time>2026-03-20T10:39:04.891Z</time>
      </trkpt>
      <trkpt lat="51.315712" lon="9.505432">
        <ele>144.017558</ele>
        <time>2026-03-20T10:39:05.273Z</time>
      </trkpt>
      <trkpt lat="51.315763" lon="9.505502">
        <ele>143.964427</ele>
        <time>2026-03-20T10:39:06.533Z</time>
      </trkpt>
      <trkpt lat="51.315832" lon="9.505597">
        <ele>143.892448</ele>
        <time>2026-03-20T10:39:08.216Z</time>
      </trkpt>
      <trkpt lat="51.315876" lon="9.505657">
        <ele>143.846735</ele>
        <time>2026-03-20T10:39:09.299Z</time>
      </trkpt>
      <trkpt lat="51.315888" lon="9.505672">
        <ele>143.834694</ele>
        <time>2026-03-20T10:39:09.611Z</time>
      </trkpt>
      <trkpt lat="51.316001" lon="9.505830">
        <ele>143.716033</ele>
        <time>2026-03-20T10:39:13.506Z</time>
      </trkpt>
      <trkpt lat="51.316984" lon="9.506942">
        <ele>142.571520</ele>
        <time>2026-03-20T10:39:44.847Z</time>
      </trkpt>
      <trkpt lat="51.317052" lon="9.506941">
        <ele>142.488680</ele>
        <time>2026-03-20T10:39:46.505Z</time>
      </trkpt>
      <trkpt lat="51.317367" lon="9.507284">
        <ele>142.024519</ele>
        <time>2026-03-20T10:39:56.097Z</time>
      </trkpt>
      <trkpt lat="51.317399" lon="9.507321">
        <ele>141.976424</ele>
        <time>2026-03-20T10:39:57.076Z</time>
      </trkpt>
      <trkpt lat="51.317722" lon="9.507678">
        <ele>141.498199</ele>
        <time>2026-03-20T10:40:07.028Z</time>
      </trkpt>
      <trkpt lat="51.318127" lon="9.508161">
        <ele>140.889710</ele>
        <time>2026-03-20T10:40:20.027Z</time>
      </trkpt>
      <trkpt lat="51.318346" lon="9.508395">
        <ele>140.616201</ele>
        <time>2026-03-20T10:40:26.871Z</time>
      </trkpt>
      <trkpt lat="51.318655" lon="9.508724">
        <ele>140.230711</ele>
        <time>2026-03-20T10:40:36.720Z</time>
      </trkpt>
      <trkpt lat="51.318692" lon="9.508764">
        <ele>140.184333</ele>
        <time>2026-03-20T10:40:37.894Z</time>
      </trkpt>
      <trkpt lat="51.318735" lon="9.508857">
        <ele>140.109242</ele>
        <time>2026-03-20T10:40:39.831Z</time>
      </trkpt>
      <trkpt lat="51.318753" lon="9.508951">
        <ele>140.045425</ele>
        <time>2026-03-20T10:40:41.024Z</time>
      </trkpt>
      <trkpt lat="51.318607" lon="9.509491">
        <ele>139.663510</ele>
        <time>2026-03-20T10:40:48.047Z</time>
      </trkpt>
      <trkpt lat="51.318462" lon="9.510254">
        <ele>139.145845</ele>
        <time>2026-03-20T10:40:57.395Z</time>
      </trkpt>
      <trkpt lat="51.318427" lon="9.510680">
        <ele>138.983523</ele>
        <time>2026-03-20T10:41:02.536Z</time>
      </trkpt>
      <trkpt lat="51.318414" lon="9.511426">
        <ele>138.789774</ele>
        <time>2026-03-20T10:41:11.693Z</time>
      </trkpt>
      <trkpt lat="51.318420" lon="9.511572">
        <ele>138.751789</ele>
        <time>2026-03-20T10:41:13.517Z</time>
      </trkpt>
      <trkpt lat="51.318618" lon="9.513823">
        <ele>138.438607</ele>
        <time>2026-03-20T10:41:44.762Z</time>
      </trkpt>
      <trkpt lat="51.318635" lon="9.514579">
        <ele>138.599017</ele>
        <time>2026-03-20T10:41:57.106Z</time>
      </trkpt>
      <trkpt lat="51.318616" lon="9.514931">
        <ele>138.673934</ele>
        <time>2026-03-20T10:42:02.591Z</time>
      </trkpt>
      <trkpt lat="51.318591" lon="9.515091">
        <ele>138.708906</ele>
        <time>2026-03-20T10:42:04.992Z</time>
      </trkpt>
      <trkpt lat="51.318660" lon="9.515119">
        <ele>138.733057</ele>
        <time>2026-03-20T10:42:06.655Z</time>
      </trkpt>
      <trkpt lat="51.318742" lon="9.515150">
        <ele>138.761644</ele>
        <time>2026-03-20T10:42:08.623Z</time>
      </trkpt>
      <trkpt lat="51.318872" lon="9.515162">
        <ele>138.805823</ele>
        <time>2026-03-20T10:42:11.738Z</time>
      </trkpt>
      <trkpt lat="51.318875" lon="9.515232">
        <ele>138.820701</ele>
        <time>2026-03-20T10:42:12.757Z</time>
      </trkpt>
      <trkpt lat="51.318945" lon="9.515633">
        <ele>138.908985</ele>
        <time>2026-03-20T10:42:18.782Z</time>
      </trkpt>
      <trkpt lat="51.318939" lon="9.515804">
        <ele>138.887248</ele>
        <time>2026-03-20T10:42:21.225Z</time>
      </trkpt>
      <trkpt lat="51.318875" lon="9.515937">
        <ele>138.824323</ele>
        <time>2026-03-20T10:42:23.583Z</time>
      </trkpt>
      <trkpt lat="51.318634" lon="9.516001">
        <ele>138.677788</ele>
        <time>2026-03-20T10:42:28.986Z</time>
      </trkpt>
      <trkpt lat="51.318523" lon="9.516049">
        <ele>138.608819</ele>
        <time>2026-03-20T10:42:31.530Z</time>
      </trkpt>
      <trkpt lat="51.318562" lon="9.516312">
        <ele>138.507487</ele>
        <time>2026-03-20T10:42:35.049Z</time>
      </trkpt>
      <trkpt lat="51.318598" lon="9.516518">
        <ele>138.427299</ele>
        <time>2026-03-20T10:42:37.637Z</time>
      </trkpt>
      <trkpt lat="51.318613" lon="9.516592">
        <ele>138.398135</ele>
        <time>2026-03-20T10:42:38.583Z</time>
      </trkpt>
      <trkpt lat="51.318653" lon="9.516779">
        <ele>138.324040</ele>
        <time>2026-03-20T10:42:40.948Z</time>
      </trkpt>
      <trkpt lat="51.318683" lon="9.516927">
        <ele>138.265712</ele>
        <time>2026-03-20T10:42:42.788Z</time>
      </trkpt>
      <trkpt lat="51.318775" lon="9.517387">
        <ele>138.084652</ele>
        <time>2026-03-20T10:42:48.490Z</time>
      </trkpt>
      <trkpt lat="51.318948" lon="9.518255">
        <ele>137.704327</ele>
        <time>2026-03-20T10:42:59.655Z</time>
      </trkpt>
      <trkpt lat="51.319101" lon="9.519019">
        <ele>137.289613</ele>
        <time>2026-03-20T10:43:09.479Z</time>
      </trkpt>
      <trkpt lat="51.319404" lon="9.520579">
        <ele>136.445161</ele>
        <time>2026-03-20T10:43:29.587Z</time>
      </trkpt>
      <trkpt lat="51.319734" lon="9.521628">
        <ele>136.066397</ele>
        <time>2026-03-20T10:43:44.425Z</time>
      </trkpt>
      <trkpt lat="51.319846" lon="9.521823">
        <ele>135.989639</ele>
        <time>2026-03-20T10:43:47.854Z</time>
      </trkpt>
      <trkpt lat="51.320112" lon="9.522033">
        <ele>135.852083</ele>
        <time>2026-03-20T10:43:53.984Z</time>
      </trkpt>
      <trkpt lat="51.320767" lon="9.522315">
        <ele>135.537524</ele>
        <time>2026-03-20T10:44:08.138Z</time>
      </trkpt>
      <trkpt lat="51.321040" lon="9.522509">
        <ele>135.521632</ele>
        <time>2026-03-20T10:44:14.646Z</time>
      </trkpt>
      <trkpt lat="51.321466" lon="9.522698">
        <ele>135.518288</ele>
        <time>2026-03-20T10:44:24.519Z</time>
      </trkpt>
      <trkpt lat="51.322250" lon="9.523083">
        <ele>135.512085</ele>
        <time>2026-03-20T10:44:42.803Z</time>
      </trkpt>
      <trkpt lat="51.322714" lon="9.523113">
        <ele>135.478575</ele>
        <time>2026-03-20T10:44:53.487Z</time>
      </trkpt>
      <trkpt lat="51.323249" lon="9.523361">
        <ele>135.389432</ele>
        <time>2026-03-20T10:45:06.095Z</time>
      </trkpt>
      <trkpt lat="51.323516" lon="9.523390">
        <ele>135.346602</ele>
        <time>2026-03-20T10:45:11.937Z</time>
      </trkpt>
      <trkpt lat="51.324185" lon="9.523987">
        <ele>135.224009</ele>
        <time>2026-03-20T10:45:27.845Z</time>
      </trkpt>
      <trkpt lat="51.324353" lon="9.524190">
        <ele>135.111267</ele>
        <time>2026-03-20T10:45:32.111Z</time>
      </trkpt>
      <trkpt lat="51.324604" lon="9.524646">
        <ele>134.899798</ele>
        <time>2026-03-20T10:45:39.812Z</time>
      </trkpt>
      <trkpt lat="51.324918" lon="9.525356">
        <ele>134.597104</ele>
        <time>2026-03-20T10:45:50.800Z</time>
      </trkpt>
      <trkpt lat="51.325053" lon="9.525753">
        <ele>134.439820</ele>
        <time>2026-03-20T10:45:56.538Z</time>
      </trkpt>
      <trkpt lat="51.325074" lon="9.526192">
        <ele>134.286603</ele>
        <time>2026-03-20T10:46:02.168Z</time>
      </trkpt>
      <trkpt lat="51.324911" lon="9.527575">
        <ele>133.901940</ele>
        <time>2026-03-20T10:46:20.223Z</time>
      </trkpt>
      <trkpt lat="51.324676" lon="9.528470">
        <ele>133.647900</ele>
        <time>2026-03-20T10:46:32.787Z</time>
      </trkpt>
      <trkpt lat="51.324497" lon="9.528977">
        <ele>133.495517</ele>
        <time>2026-03-20T10:46:40.537Z</time>
      </trkpt>
      <trkpt lat="51.324475" lon="9.529196">
        <ele>133.479059</ele>
        <time>2026-03-20T10:46:43.517Z</time>
      </trkpt>
      <trkpt lat="51.324268" lon="9.529759">
        <ele>133.545810</ele>
        <time>2026-03-20T10:46:52.498Z</time>
      </trkpt>
      <trkpt lat="51.324137" lon="9.530223">
        <ele>133.597840</ele>
        <time>2026-03-20T10:46:59.730Z</time>
      </trkpt>
      <trkpt lat="51.324083" lon="9.530636">
        <ele>133.640958</ele>
        <time>2026-03-20T10:47:05.866Z</time>
      </trkpt>
      <trkpt lat="51.324291" lon="9.533774">
        <ele>134.010893</ele>
        <time>2026-03-20T10:47:52.447Z</time>
      </trkpt>
      <trkpt lat="51.324365" lon="9.534905">
        <ele>134.093254</ele>
        <time>2026-03-20T10:48:08.419Z</time>
      </trkpt>
      <trkpt lat="51.324518" lon="9.537249">
        <ele>133.777116</ele>
        <time>2026-03-20T10:48:39.033Z</time>
      </trkpt>
      <trkpt lat="51.324536" lon="9.537335">
        <ele>133.764950</ele>
        <time>2026-03-20T10:48:40.272Z</time>
      </trkpt>
      <trkpt lat="51.324590" lon="9.537388">
        <ele>133.751351</ele>
        <time>2026-03-20T10:48:41.665Z</time>
      </trkpt>
      <trkpt lat="51.324837" lon="9.537332">
        <ele>133.821728</ele>
        <time>2026-03-20T10:48:47.413Z</time>
      </trkpt>
      <trkpt lat="51.324900" lon="9.537317">
        <ele>133.849509</ele>
        <time>2026-03-20T10:48:48.949Z</time>
      </trkpt>
      <trkpt lat="51.325248" lon="9.537223">
        <ele>134.003441</ele>
        <time>2026-03-20T10:48:57.420Z</time>
      </trkpt>
      <trkpt lat="51.325972" lon="9.537047">
        <ele>134.322846</ele>
        <time>2026-03-20T10:49:15.623Z</time>
      </trkpt>
      <trkpt lat="51.326064" lon="9.537024">
        <ele>134.363459</ele>
        <time>2026-03-20T10:49:17.911Z</time>
      </trkpt>
      <trkpt lat="51.326480" lon="9.537905">
        <ele>134.545634</ele>
        <time>2026-03-20T10:49:34.953Z</time>
      </trkpt>
      <trkpt lat="51.326966" lon="9.539373">
        <ele>134.617621</ele>
        <time>2026-03-20T10:49:57.349Z</time>
      </trkpt>
      <trkpt lat="51.327347" lon="9.540201">
        <ele>134.745332</ele>
        <time>2026-03-20T10:50:11.536Z</time>
      </trkpt>
      <trkpt lat="51.327641" lon="9.541277">
        <ele>135.092661</ele>
        <time>2026-03-20T10:50:28.763Z</time>
      </trkpt>
      <trkpt lat="51.327830" lon="9.541754">
        <ele>135.259709</ele>
        <time>2026-03-20T10:50:37.766Z</time>
      </trkpt>
      <trkpt lat="51.327889" lon="9.541887">
        <ele>135.307949</ele>
        <time>2026-03-20T10:50:40.393Z</time>
      </trkpt>
      <trkpt lat="51.328422" lon="9.543151">
        <ele>136.086255</ele>
        <time>2026-03-20T10:51:04.550Z</time>
      </trkpt>
      <trkpt lat="51.328642" lon="9.543931">
        <ele>136.658327</ele>
        <time>2026-03-20T10:51:18.591Z</time>
      </trkpt>
      <trkpt lat="51.328965" lon="9.545448">
        <ele>137.540975</ele>
        <time>2026-03-20T10:51:46.428Z</time>
      </trkpt>
      <trkpt lat="51.329150" lon="9.545832">
        <ele>137.665381</ele>
        <time>2026-03-20T10:51:54.324Z</time>
      </trkpt>
      <trkpt lat="51.329283" lon="9.546332">
        <ele>137.804806</ele>
        <time>2026-03-20T10:52:02.521Z</time>
      </trkpt>
      <trkpt lat="51.329369" lon="9.546921">
        <ele>137.959995</ele>
        <time>2026-03-20T10:52:10.996Z</time>
      </trkpt>
      <trkpt lat="51.329387" lon="9.547175">
        <ele>138.025581</ele>
        <time>2026-03-20T10:52:14.553Z</time>
      </trkpt>
      <trkpt lat="51.329463" lon="9.547336">
        <ele>138.077351</ele>
        <time>2026-03-20T10:52:17.269Z</time>
      </trkpt>
      <trkpt lat="51.329512" lon="9.547565">
        <ele>138.139454</ele>
        <time>2026-03-20T10:52:20.457Z</time>
      </trkpt>
      <trkpt lat="51.329622" lon="9.548277">
        <ele>138.077122</ele>
        <time>2026-03-20T10:52:29.728Z</time>
      </trkpt>
      <trkpt lat="51.329807" lon="9.549264">
        <ele>137.941672</ele>
        <time>2026-03-20T10:52:44.093Z</time>
      </trkpt>
      <trkpt lat="51.330143" lon="9.550626">
        <ele>137.583695</ele>
        <time>2026-03-20T10:53:04.667Z</time>
      </trkpt>
      <trkpt lat="51.330440" lon="9.552572">
        <ele>136.054056</ele>
        <time>2026-03-20T10:53:27.756Z</time>
      </trkpt>
      <trkpt lat="51.330412" lon="9.553075">
        <ele>135.668448</ele>
        <time>2026-03-20T10:53:33.352Z</time>
      </trkpt>
      <trkpt lat="51.330030" lon="9.554516">
        <ele>134.830944</ele>
        <time>2026-03-20T10:53:51.503Z</time>
      </trkpt>
      <trkpt lat="51.329919" lon="9.555166">
        <ele>134.481899</ele>
        <time>2026-03-20T10:54:00.172Z</time>
      </trkpt>
      <trkpt lat="51.329697" lon="9.556919">
        <ele>134.448545</ele>
        <time>2026-03-20T10:54:24.784Z</time>
      </trkpt>
      <trkpt lat="51.329463" lon="9.558764">
        <ele>135.107114</ele>
        <time>2026-03-20T10:54:54.743Z</time>
      </trkpt>
      <trkpt lat="51.329470" lon="9.558935">
        <ele>135.234070</ele>
        <time>2026-03-20T10:54:57.659Z</time>
      </trkpt>
      <trkpt lat="51.329544" lon="9.559336">
        <ele>135.543833</ele>
        <time>2026-03-20T10:55:04.912Z</time>
      </trkpt>
      <trkpt lat="51.329535" lon="9.559479">
        <ele>135.650310</ele>
        <time>2026-03-20T10:55:07.449Z</time>
      </trkpt>
      <trkpt lat="51.328945" lon="9.561083">
        <ele>137.029241</ele>
        <time>2026-03-20T10:55:39.692Z</time>
      </trkpt>
      <trkpt lat="51.328748" lon="9.562050">
        <ele>137.464069</ele>
        <time>2026-03-20T10:55:55.671Z</time>
      </trkpt>
      <trkpt lat="51.328691" lon="9.562443">
        <ele>137.597638</ele>
        <time>2026-03-20T10:56:01.686Z</time>
      </trkpt>
      <trkpt lat="51.328647" lon="9.562933">
        <ele>137.761529</ele>
        <time>2026-03-20T10:56:08.957Z</time>
      </trkpt>
      <trkpt lat="51.328647" lon="9.563331">
        <ele>137.893294</ele>
        <time>2026-03-20T10:56:14.852Z</time>
      </trkpt>
      <trkpt lat="51.328699" lon="9.564248">
        <ele>138.199485</ele>
        <time>2026-03-20T10:56:28.612Z</time>
      </trkpt>
      <trkpt lat="51.328797" lon="9.564636">
        <ele>138.342898</ele>
        <time>2026-03-20T10:56:34.765Z</time>
      </trkpt>
      <trkpt lat="51.329061" lon="9.565707">
        <ele>138.737438</ele>
        <time>2026-03-20T10:56:51.933Z</time>
      </trkpt>
      <trkpt lat="51.329248" lon="9.566279">
        <ele>138.958660</ele>
        <time>2026-03-20T10:57:01.972Z</time>
      </trkpt>
      <trkpt lat="51.329675" lon="9.566973">
        <ele>139.419732</ele>
        <time>2026-03-20T10:57:17.415Z</time>
      </trkpt>
      <trkpt lat="51.330642" lon="9.567906">
        <ele>140.577412</ele>
        <time>2026-03-20T10:57:47.646Z</time>
      </trkpt>
      <trkpt lat="51.331289" lon="9.568252">
        <ele>141.450957</ele>
        <time>2026-03-20T10:58:05.072Z</time>
      </trkpt>
      <trkpt lat="51.332121" lon="9.568613">
        <ele>142.871603</ele>
        <time>2026-03-20T10:58:29.249Z</time>
      </trkpt>
      <trkpt lat="51.332494" lon="9.568717">
        <ele>143.495572</ele>
        <time>2026-03-20T10:58:40.824Z</time>
      </trkpt>
      <trkpt lat="51.333480" lon="9.568826">
        <ele>145.247548</ele>
        <time>2026-03-20T10:59:12.720Z</time>
      </trkpt>
      <trkpt lat="51.334267" lon="9.568819">
        <ele>146.681079</ele>
        <time>2026-03-20T10:59:36.441Z</time>
      </trkpt>
      <trkpt lat="51.334722" lon="9.568709">
        <ele>147.204182</ele>
        <time>2026-03-20T10:59:48.033Z</time>
      </trkpt>
      <trkpt lat="51.335021" lon="9.568748">
        <ele>147.154334</ele>
        <time>2026-03-20T10:59:55.073Z</time>
      </trkpt>
      <trkpt lat="51.335038" lon="9.568751">
        <ele>147.151492</ele>
        <time>2026-03-20T10:59:55.459Z</time>
      </trkpt>
      <trkpt lat="51.337793" lon="9.568775">
        <ele>146.203156</ele>
        <time>2026-03-20T11:00:51.603Z</time>
      </trkpt>
      <trkpt lat="51.338221" lon="9.568681">
        <ele>146.066999</ele>
        <time>2026-03-20T11:01:00.607Z</time>
      </trkpt>
      <trkpt lat="51.338711" lon="9.568488">
        <ele>146.455720</ele>
        <time>2026-03-20T11:01:11.394Z</time>
      </trkpt>
      <trkpt lat="51.339525" lon="9.567842">
        <ele>147.155600</ele>
        <time>2026-03-20T11:01:33.977Z</time>
      </trkpt>
      <trkpt lat="51.341141" lon="9.566230">
        <ele>151.432735</ele>
        <time>2026-03-20T11:02:35.722Z</time>
      </trkpt>
      <trkpt lat="51.341431" lon="9.565845">
        <ele>152.188095</ele>
        <time>2026-03-20T11:02:48.995Z</time>
      </trkpt>
      <trkpt lat="51.341576" lon="9.565554">
        <ele>152.488101</ele>
        <time>2026-03-20T11:02:56.842Z</time>
      </trkpt>
      <trkpt lat="51.341849" lon="9.565103">
        <ele>152.994242</ele>
        <time>2026-03-20T11:03:09.503Z</time>
      </trkpt>
      <trkpt lat="51.343428" lon="9.563066">
        <ele>152.239459</ele>
        <time>2026-03-20T11:03:55.897Z</time>
      </trkpt>
      <trkpt lat="51.344743" lon="9.561563">
        <ele>146.954427</ele>
        <time>2026-03-20T11:04:20.448Z</time>
      </trkpt>
      <trkpt lat="51.344772" lon="9.561551">
        <ele>146.821473</ele>
        <time>2026-03-20T11:04:20.854Z</time>
      </trkpt>
      <trkpt lat="51.344935" lon="9.561554">
        <ele>146.097905</ele>
        <time>2026-03-20T11:04:23.260Z</time>
      </trkpt>
      <trkpt lat="51.345387" lon="9.561066">
        <ele>143.677989</ele>
        <time>2026-03-20T11:04:31.314Z</time>
      </trkpt>
      <trkpt lat="51.345518" lon="9.560963">
        <ele>143.030169</ele>
        <time>2026-03-20T11:04:33.603Z</time>
      </trkpt>
      <trkpt lat="51.345740" lon="9.560691">
        <ele>143.294972</ele>
        <time>2026-03-20T11:04:38.315Z</time>
      </trkpt>
      <trkpt lat="51.345849" lon="9.560555">
        <ele>143.731089</ele>
        <time>2026-03-20T11:04:41.368Z</time>
      </trkpt>
      <trkpt lat="51.345948" lon="9.560431">
        <ele>144.127773</ele>
        <time>2026-03-20T11:04:45.038Z</time>
      </trkpt>
      <trkpt lat="51.346287" lon="9.559897">
        <ele>145.628626</ele>
        <time>2026-03-20T11:05:04.654Z</time>
      </trkpt>
      <trkpt lat="51.347013" lon="9.559003">
        <ele>148.436973</ele>
        <time>2026-03-20T11:05:47.701Z</time>
      </trkpt>
      <trkpt lat="51.347411" lon="9.558563">
        <ele>149.240910</ele>
        <time>2026-03-20T11:06:06.950Z</time>
      </trkpt>
      <trkpt lat="51.347883" lon="9.558226">
        <ele>150.099935</ele>
        <time>2026-03-20T11:06:21.897Z</time>
      </trkpt>
      <trkpt lat="51.348395" lon="9.557999">
        <ele>150.982996</ele>
        <time>2026-03-20T11:06:32.616Z</time>
      </trkpt>
      <trkpt lat="51.349593" lon="9.557467">
        <ele>149.894720</ele>
        <time>2026-03-20T11:06:55.374Z</time>
      </trkpt>
      <trkpt lat="51.349766" lon="9.557406">
        <ele>149.647284</ele>
        <time>2026-03-20T11:06:58.500Z</time>
      </trkpt>
      <trkpt lat="51.351159" lon="9.556915">
        <ele>148.276270</ele>
        <time>2026-03-20T11:07:25.418Z</time>
      </trkpt>
      <trkpt lat="51.352177" lon="9.556463">
        <ele>147.514462</ele>
        <time>2026-03-20T11:07:49.770Z</time>
      </trkpt>
      <trkpt lat="51.353696" lon="9.555574">
        <ele>145.231623</ele>
        <time>2026-03-20T11:08:18.993Z</time>
      </trkpt>
      <trkpt lat="51.354289" lon="9.555304">
        <ele>144.615371</ele>
        <time>2026-03-20T11:08:29.896Z</time>
      </trkpt>
      <trkpt lat="51.354393" lon="9.555219">
        <ele>144.506604</ele>
        <time>2026-03-20T11:08:32.052Z</time>
      </trkpt>
      <trkpt lat="51.354532" lon="9.555021">
        <ele>144.333305</ele>
        <time>2026-03-20T11:08:35.549Z</time>
      </trkpt>
      <trkpt lat="51.354683" lon="9.554660">
        <ele>144.080545</ele>
        <time>2026-03-20T11:08:40.853Z</time>
      </trkpt>
      <trkpt lat="51.356172" lon="9.552859">
        <ele>142.426687</ele>
        <time>2026-03-20T11:09:21.484Z</time>
      </trkpt>
      <trkpt lat="51.357107" lon="9.551670">
        <ele>141.072827</ele>
        <time>2026-03-20T11:09:42.255Z</time>
      </trkpt>
      <trkpt lat="51.357590" lon="9.550953">
        <ele>140.125392</ele>
        <time>2026-03-20T11:09:53.617Z</time>
      </trkpt>
      <trkpt lat="51.358095" lon="9.549948">
        <ele>139.817740</ele>
        <time>2026-03-20T11:10:09.942Z</time>
      </trkpt>
      <trkpt lat="51.358169" lon="9.549669">
        <ele>140.241634</ele>
        <time>2026-03-20T11:10:15.603Z</time>
      </trkpt>
      <trkpt lat="51.358219" lon="9.549480">
        <ele>140.528675</ele>
        <time>2026-03-20T11:10:19.937Z</time>
      </trkpt>
      <trkpt lat="51.358265" lon="9.549037">
        <ele>141.156678</ele>
        <time>2026-03-20T11:10:29.938Z</time>
      </trkpt>
      <trkpt lat="51.358224" lon="9.548464">
        <ele>141.963212</ele>
        <time>2026-03-20T11:10:43.357Z</time>
      </trkpt>
      <trkpt lat="51.358175" lon="9.547810">
        <ele>142.884335</ele>
        <time>2026-03-20T11:10:58.404Z</time>
      </trkpt>
      <trkpt lat="51.358199" lon="9.547399">
        <ele>143.260115</ele>
        <time>2026-03-20T11:11:07.581Z</time>
      </trkpt>
      <trkpt lat="51.358264" lon="9.547049">
        <ele>143.003819</ele>
        <time>2026-03-20T11:11:15.116Z</time>
      </trkpt>
      <trkpt lat="51.358626" lon="9.545521">
        <ele>141.856744</ele>
        <time>2026-03-20T11:11:34.409Z</time>
      </trkpt>
      <trkpt lat="51.358844" lon="9.544990">
        <ele>141.410709</ele>
        <time>2026-03-20T11:11:40.522Z</time>
      </trkpt>
      <trkpt lat="51.359302" lon="9.543642">
        <ele>139.319092</ele>
        <time>2026-03-20T11:11:55.649Z</time>
      </trkpt>
      <trkpt lat="51.359881" lon="9.542339">
        <ele>137.358132</ele>
        <time>2026-03-20T11:12:13.846Z</time>
      </trkpt>
      <trkpt lat="51.360059" lon="9.541804">
        <ele>138.431020</ele>
        <time>2026-03-20T11:12:24.034Z</time>
      </trkpt>
      <trkpt lat="51.360187" lon="9.541185">
        <ele>139.585059</ele>
        <time>2026-03-20T11:12:37.098Z</time>
      </trkpt>
      <trkpt lat="51.360214" lon="9.540959">
        <ele>139.992297</ele>
        <time>2026-03-20T11:12:42.211Z</time>
      </trkpt>
      <trkpt lat="51.360339" lon="9.539100">
        <ele>143.837771</ele>
        <time>2026-03-20T11:13:30.724Z</time>
      </trkpt>
      <trkpt lat="51.360584" lon="9.537390">
        <ele>148.560971</ele>
        <time>2026-03-20T11:14:16.665Z</time>
      </trkpt>
      <trkpt lat="51.360794" lon="9.536488">
        <ele>150.337738</ele>
        <time>2026-03-20T11:14:37.762Z</time>
      </trkpt>
      <trkpt lat="51.362222" lon="9.532566">
        <ele>151.250925</ele>
        <time>2026-03-20T11:15:47.077Z</time>
      </trkpt>
      <trkpt lat="51.362966" lon="9.531303">
        <ele>148.254053</ele>
        <time>2026-03-20T11:16:04.495Z</time>
      </trkpt>
      <trkpt lat="51.363695" lon="9.530251">
        <ele>143.804827</ele>
        <time>2026-03-20T11:16:18.897Z</time>
      </trkpt>
      <trkpt lat="51.364305" lon="9.529708">
        <ele>141.385876</ele>
        <time>2026-03-20T11:16:30.049Z</time>
      </trkpt>
      <trkpt lat="51.364447" lon="9.529594">
        <ele>140.921209</ele>
        <time>2026-03-20T11:16:32.581Z</time>
      </trkpt>
      <trkpt lat="51.364490" lon="9.529502">
        <ele>140.711304</ele>
        <time>2026-03-20T11:16:33.740Z</time>
      </trkpt>
      <trkpt lat="51.364417" lon="9.529198">
        <ele>140.116398</ele>
        <time>2026-03-20T11:16:37.046Z</time>
      </trkpt>
      <trkpt lat="51.364560" lon="9.529134">
        <ele>139.682044</ele>
        <time>2026-03-20T11:16:39.481Z</time>
      </trkpt>
      <trkpt lat="51.364624" lon="9.529115">
        <ele>139.491631</ele>
        <time>2026-03-20T11:16:40.559Z</time>
      </trkpt>
      <trkpt lat="51.364776" lon="9.529065">
        <ele>139.037693</ele>
        <time>2026-03-20T11:16:45.328Z</time>
      </trkpt>
      <trkpt lat="51.364849" lon="9.529059">
        <ele>138.823860</ele>
        <time>2026-03-20T11:16:46.666Z</time>
      </trkpt>
      <trkpt lat="51.364941" lon="9.529118">
        <ele>138.533953</ele>
        <time>2026-03-20T11:16:48.498Z</time>
      </trkpt>
      <trkpt lat="51.365730" lon="9.529781">
        <ele>136.989998</ele>
        <time>2026-03-20T11:17:04.676Z</time>
      </trkpt>
      <trkpt lat="51.366067" lon="9.530008">
        <ele>136.652675</ele>
        <time>2026-03-20T11:17:11.485Z</time>
      </trkpt>
      <trkpt lat="51.366936" lon="9.530219">
        <ele>135.841702</ele>
        <time>2026-03-20T11:17:30.035Z</time>
      </trkpt>
      <trkpt lat="51.367308" lon="9.530328">
        <ele>135.523082</ele>
        <time>2026-03-20T11:17:38.272Z</time>
      </trkpt>
      <trkpt lat="51.367527" lon="9.530432">
        <ele>135.331848</ele>
        <time>2026-03-20T11:17:43.008Z</time>
      </trkpt>
      <trkpt lat="51.367887" lon="9.530651">
        <ele>135.009453</ele>
        <time>2026-03-20T11:17:50.596Z</time>
      </trkpt>
      <trkpt lat="51.368153" lon="9.530881">
        <ele>134.756383</ele>
        <time>2026-03-20T11:17:56.323Z</time>
      </trkpt>
      <trkpt lat="51.368435" lon="9.531226">
        <ele>134.459308</ele>
        <time>2026-03-20T11:18:02.961Z</time>
      </trkpt>
      <trkpt lat="51.368735" lon="9.531682">
        <ele>134.146020</ele>
        <time>2026-03-20T11:18:10.688Z</time>
      </trkpt>
      <trkpt lat="51.368898" lon="9.531983">
        <ele>133.971893</ele>
        <time>2026-03-20T11:18:15.379Z</time>
      </trkpt>
      <trkpt lat="51.369167" lon="9.532665">
        <ele>133.619361</ele>
        <time>2026-03-20T11:18:25.062Z</time>
      </trkpt>
      <trkpt lat="51.369413" lon="9.533737">
        <ele>133.120256</ele>
        <time>2026-03-20T11:18:39.887Z</time>
      </trkpt>
      <trkpt lat="51.369516" lon="9.534610">
        <ele>133.290199</ele>
        <time>2026-03-20T11:18:52.861Z</time>
      </trkpt>
      <trkpt lat="51.369533" lon="9.535284">
        <ele>133.504653</ele>
        <time>2026-03-20T11:19:03.306Z</time>
      </trkpt>
      <trkpt lat="51.369467" lon="9.536703">
        <ele>133.957034</ele>
        <time>2026-03-20T11:19:25.834Z</time>
      </trkpt>
      <trkpt lat="51.369393" lon="9.537396">
        <ele>134.126897</ele>
        <time>2026-03-20T11:19:36.746Z</time>
      </trkpt>
      <trkpt lat="51.369297" lon="9.537919">
        <ele>134.255815</ele>
        <time>2026-03-20T11:19:44.835Z</time>
      </trkpt>
      <trkpt lat="51.369186" lon="9.538406">
        <ele>134.378420</ele>
        <time>2026-03-20T11:19:52.281Z</time>
      </trkpt>
      <trkpt lat="51.369053" lon="9.538848">
        <ele>134.494455</ele>
        <time>2026-03-20T11:19:59.258Z</time>
      </trkpt>
      <trkpt lat="51.368885" lon="9.539299">
        <ele>134.618655</ele>
        <time>2026-03-20T11:20:06.779Z</time>
      </trkpt>
      <trkpt lat="51.368622" lon="9.539870">
        <ele>134.752812</ele>
        <time>2026-03-20T11:20:17.127Z</time>
      </trkpt>
      <trkpt lat="51.368409" lon="9.540272">
        <ele>134.846202</ele>
        <time>2026-03-20T11:20:25.143Z</time>
      </trkpt>
      <trkpt lat="51.367918" lon="9.540952">
        <ele>135.030353</ele>
        <time>2026-03-20T11:20:40.978Z</time>
      </trkpt>
      <trkpt lat="51.367566" lon="9.541336">
        <ele>135.151180</ele>
        <time>2026-03-20T11:20:51.035Z</time>
      </trkpt>
      <trkpt lat="51.366507" lon="9.542292">
        <ele>134.432494</ele>
        <time>2026-03-20T11:21:15.759Z</time>
      </trkpt>
      <trkpt lat="51.366135" lon="9.542664">
        <ele>134.159951</ele>
        <time>2026-03-20T11:21:24.099Z</time>
      </trkpt>
      <trkpt lat="51.365566" lon="9.543327">
        <ele>133.697148</ele>
        <time>2026-03-20T11:21:37.858Z</time>
      </trkpt>
      <trkpt lat="51.365111" lon="9.543985">
        <ele>133.286007</ele>
        <time>2026-03-20T11:21:50.479Z</time>
      </trkpt>
      <trkpt lat="51.364675" lon="9.544739">
        <ele>132.855667</ele>
        <time>2026-03-20T11:22:03.942Z</time>
      </trkpt>
      <trkpt lat="51.364069" lon="9.546078">
        <ele>131.868714</ele>
        <time>2026-03-20T11:22:23.932Z</time>
      </trkpt>
      <trkpt lat="51.363715" lon="9.547241">
        <ele>131.098698</ele>
        <time>2026-03-20T11:22:39.009Z</time>
      </trkpt>
      <trkpt lat="51.363667" lon="9.547510">
        <ele>131.015654</ele>
        <time>2026-03-20T11:22:42.379Z</time>
      </trkpt>
      <trkpt lat="51.363640" lon="9.547645">
        <ele>130.973577</ele>
        <time>2026-03-20T11:22:44.086Z</time>
      </trkpt>
      <trkpt lat="51.363266" lon="9.549056">
        <ele>130.518570</ele>
        <time>2026-03-20T11:23:03.599Z</time>
      </trkpt>
      <trkpt lat="51.362672" lon="9.551613">
        <ele>130.281630</ele>
        <time>2026-03-20T11:23:41.909Z</time>
      </trkpt>
      <trkpt lat="51.361899" lon="9.554923">
        <ele>130.213791</ele>
        <time>2026-03-20T11:24:31.046Z</time>
      </trkpt>
      <trkpt lat="51.361720" lon="9.556076">
        <ele>130.064182</ele>
        <time>2026-03-20T11:24:47.004Z</time>
      </trkpt>
      <trkpt lat="51.361621" lon="9.557159">
        <ele>129.875634</ele>
        <time>2026-03-20T11:25:01.486Z</time>
      </trkpt>
      <trkpt lat="51.361604" lon="9.558096">
        <ele>129.714158</ele>
        <time>2026-03-20T11:25:13.812Z</time>
      </trkpt>
      <trkpt lat="51.361656" lon="9.559201">
        <ele>129.697007</ele>
        <time>2026-03-20T11:25:28.384Z</time>
      </trkpt>
      <trkpt lat="51.361790" lon="9.560309">
        <ele>129.689628</ele>
        <time>2026-03-20T11:25:44.108Z</time>
      </trkpt>
      <trkpt lat="51.362027" lon="9.561887">
        <ele>129.632061</ele>
        <time>2026-03-20T11:26:08.122Z</time>
      </trkpt>
      <trkpt lat="51.362094" lon="9.562466">
        <ele>129.598137</ele>
        <time>2026-03-20T11:26:16.441Z</time>
      </trkpt>
      <trkpt lat="51.362098" lon="9.562871">
        <ele>129.574802</ele>
        <time>2026-03-20T11:26:21.888Z</time>
      </trkpt>
      <trkpt lat="51.362009" lon="9.563416">
        <ele>129.542348</ele>
        <time>2026-03-20T11:26:29.222Z</time>
      </trkpt>
      <trkpt lat="51.362027" lon="9.563525">
        <ele>129.535853</ele>
        <time>2026-03-20T11:26:30.669Z</time>
      </trkpt>
      <trkpt lat="51.362102" lon="9.563604">
        <ele>129.527571</ele>
        <time>2026-03-20T11:26:32.494Z</time>
      </trkpt>
      <trkpt lat="51.362103" lon="9.564310">
        <ele>129.396370</ele>
        <time>2026-03-20T11:26:41.149Z</time>
      </trkpt>
      <trkpt lat="51.362137" lon="9.564620">
        <ele>129.327223</ele>
        <time>2026-03-20T11:26:44.999Z</time>
      </trkpt>
      <trkpt lat="51.362264" lon="9.565309">
        <ele>129.169397</ele>
        <time>2026-03-20T11:26:54.030Z</time>
      </trkpt>
      <trkpt lat="51.362409" lon="9.565859">
        <ele>129.038238</ele>
        <time>2026-03-20T11:27:01.958Z</time>
      </trkpt>
      <trkpt lat="51.362788" lon="9.567130">
        <ele>128.947331</ele>
        <time>2026-03-20T11:27:22.694Z</time>
      </trkpt>
      <trkpt lat="51.362865" lon="9.567384">
        <ele>128.971409</ele>
        <time>2026-03-20T11:27:26.768Z</time>
      </trkpt>
      <trkpt lat="51.362929" lon="9.567867">
        <ele>129.013515</ele>
        <time>2026-03-20T11:27:33.964Z</time>
      </trkpt>
      <trkpt lat="51.363358" lon="9.568727">
        <ele>129.107383</ele>
        <time>2026-03-20T11:27:49.391Z</time>
      </trkpt>
      <trkpt lat="51.363843" lon="9.569519">
        <ele>129.723354</ele>
        <time>2026-03-20T11:28:04.312Z</time>
      </trkpt>
      <trkpt lat="51.364239" lon="9.569965">
        <ele>130.281185</ele>
        <time>2026-03-20T11:28:16.533Z</time>
      </trkpt>
      <trkpt lat="51.364612" lon="9.570234">
        <ele>130.752549</ele>
        <time>2026-03-20T11:28:28.381Z</time>
      </trkpt>
      <trkpt lat="51.365011" lon="9.570456">
        <ele>131.258213</ele>
        <time>2026-03-20T11:28:41.836Z</time>
      </trkpt>
      <trkpt lat="51.365794" lon="9.570767">
        <ele>132.693426</ele>
        <time>2026-03-20T11:29:09.366Z</time>
      </trkpt>
      <trkpt lat="51.366177" lon="9.571015">
        <ele>133.428389</ele>
        <time>2026-03-20T11:29:22.070Z</time>
      </trkpt>
      <trkpt lat="51.366482" lon="9.571269">
        <ele>134.039971</ele>
        <time>2026-03-20T11:29:31.049Z</time>
      </trkpt>
      <trkpt lat="51.366806" lon="9.571636">
        <ele>134.289133</ele>
        <time>2026-03-20T11:29:39.899Z</time>
      </trkpt>
      <trkpt lat="51.367440" lon="9.572495">
        <ele>133.790845</ele>
        <time>2026-03-20T11:29:56.012Z</time>
      </trkpt>
      <trkpt lat="51.368507" lon="9.573792">
        <ele>132.784513</ele>
        <time>2026-03-20T11:30:22.523Z</time>
      </trkpt>
      <trkpt lat="51.369240" lon="9.574765">
        <ele>131.870867</ele>
        <time>2026-03-20T11:30:41.793Z</time>
      </trkpt>
      <trkpt lat="51.369714" lon="9.575341">
        <ele>131.107942</ele>
        <time>2026-03-20T11:30:52.437Z</time>
      </trkpt>
      <trkpt lat="51.370642" lon="9.576015">
        <ele>129.502365</ele>
        <time>2026-03-20T11:31:09.847Z</time>
      </trkpt>
      <trkpt lat="51.370840" lon="9.576132">
        <ele>129.169817</ele>
        <time>2026-03-20T11:31:13.731Z</time>
      </trkpt>
      <trkpt lat="51.370860" lon="9.576144">
        <ele>129.136164</ele>
        <time>2026-03-20T11:31:14.149Z</time>
      </trkpt>
      <trkpt lat="51.371101" lon="9.576240">
        <ele>128.783076</ele>
        <time>2026-03-20T11:31:19.217Z</time>
      </trkpt>
      <trkpt lat="51.371399" lon="9.576238">
        <ele>129.218657</ele>
        <time>2026-03-20T11:31:26.186Z</time>
      </trkpt>
      <trkpt lat="51.371598" lon="9.576132">
        <ele>129.525189</ele>
        <time>2026-03-20T11:31:31.738Z</time>
      </trkpt>
      <trkpt lat="51.371748" lon="9.575979">
        <ele>129.785114</ele>
        <time>2026-03-20T11:31:36.845Z</time>
      </trkpt>
      <trkpt lat="51.371883" lon="9.575745">
        <ele>130.075849</ele>
        <time>2026-03-20T11:31:42.954Z</time>
      </trkpt>
      <trkpt lat="51.371939" lon="9.575596">
        <ele>130.234545</ele>
        <time>2026-03-20T11:31:46.353Z</time>
      </trkpt>
      <trkpt lat="51.372262" lon="9.574313">
        <ele>131.454080</ele>
        <time>2026-03-20T11:32:14.611Z</time>
      </trkpt>
      <trkpt lat="51.372869" lon="9.572109">
        <ele>132.740764</ele>
        <time>2026-03-20T11:32:54.062Z</time>
      </trkpt>
      <trkpt lat="51.372904" lon="9.571958">
        <ele>132.826797</ele>
        <time>2026-03-20T11:32:56.077Z</time>
      </trkpt>
      <trkpt lat="51.373031" lon="9.571409">
        <ele>132.885801</ele>
        <time>2026-03-20T11:33:03.273Z</time>
      </trkpt>
      <trkpt lat="51.373244" lon="9.570709">
        <ele>132.791593</ele>
        <time>2026-03-20T11:33:12.525Z</time>
      </trkpt>
      <trkpt lat="51.373494" lon="9.569414">
        <ele>132.627609</ele>
        <time>2026-03-20T11:33:30.023Z</time>
      </trkpt>
      <trkpt lat="51.373656" lon="9.568332">
        <ele>133.332914</ele>
        <time>2026-03-20T11:33:49.027Z</time>
      </trkpt>
      <trkpt lat="51.373773" lon="9.566856">
        <ele>134.812699</ele>
        <time>2026-03-20T11:34:16.431Z</time>
      </trkpt>
      <trkpt lat="51.373975" lon="9.564027">
        <ele>139.548909</ele>
        <time>2026-03-20T11:35:10.798Z</time>
      </trkpt>
      <trkpt lat="51.374107" lon="9.563098">
        <ele>141.360251</ele>
        <time>2026-03-20T11:35:36.550Z</time>
      </trkpt>
      <trkpt lat="51.374121" lon="9.562719">
        <ele>142.122279</ele>
        <time>2026-03-20T11:35:47.299Z</time>
      </trkpt>
      <trkpt lat="51.374103" lon="9.562397">
        <ele>142.771157</ele>
        <time>2026-03-20T11:35:56.364Z</time>
      </trkpt>
      <trkpt lat="51.374127" lon="9.562027">
        <ele>143.517789</ele>
        <time>2026-03-20T11:36:06.282Z</time>
      </trkpt>
      <trkpt lat="51.374259" lon="9.561427">
        <ele>144.794659</ele>
        <time>2026-03-20T11:36:20.681Z</time>
      </trkpt>
      <trkpt lat="51.374446" lon="9.560920">
        <ele>145.976623</ele>
        <time>2026-03-20T11:36:31.724Z</time>
      </trkpt>
      <trkpt lat="51.374699" lon="9.560450">
        <ele>146.304265</ele>
        <time>2026-03-20T11:36:39.897Z</time>
      </trkpt>
      <trkpt lat="51.374842" lon="9.560258">
        <ele>146.040037</ele>
        <time>2026-03-20T11:36:43.227Z</time>
      </trkpt>
      <trkpt lat="51.375291" lon="9.559872">
        <ele>145.318419</ele>
        <time>2026-03-20T11:36:51.957Z</time>
      </trkpt>
      <trkpt lat="51.375861" lon="9.559182">
        <ele>144.306686</ele>
        <time>2026-03-20T11:37:04.528Z</time>
      </trkpt>
      <trkpt lat="51.376152" lon="9.558893">
        <ele>143.777025</ele>
        <time>2026-03-20T11:37:10.981Z</time>
      </trkpt>
      <trkpt lat="51.376693" lon="9.558455">
        <ele>142.740559</ele>
        <time>2026-03-20T11:37:22.207Z</time>
      </trkpt>
      <trkpt lat="51.377041" lon="9.558221">
        <ele>142.095230</ele>
        <time>2026-03-20T11:37:28.994Z</time>
      </trkpt>
      <trkpt lat="51.377383" lon="9.558078">
        <ele>141.490859</ele>
        <time>2026-03-20T11:37:35.214Z</time>
      </trkpt>
      <trkpt lat="51.377897" lon="9.557951">
        <ele>140.651997</ele>
        <time>2026-03-20T11:37:44.315Z</time>
      </trkpt>
      <trkpt lat="51.378879" lon="9.557796">
        <ele>139.200536</ele>
        <time>2026-03-20T11:38:02.354Z</time>
      </trkpt>
      <trkpt lat="51.379425" lon="9.557710">
        <ele>138.393528</ele>
        <time>2026-03-20T11:38:12.933Z</time>
      </trkpt>
      <trkpt lat="51.379929" lon="9.557693">
        <ele>137.751525</ele>
        <time>2026-03-20T11:38:22.449Z</time>
      </trkpt>
      <trkpt lat="51.380706" lon="9.557757">
        <ele>136.778454</ele>
        <time>2026-03-20T11:38:36.783Z</time>
      </trkpt>
      <trkpt lat="51.381316" lon="9.557884">
        <ele>136.045496</ele>
        <time>2026-03-20T11:38:48.317Z</time>
      </trkpt>
      <trkpt lat="51.381882" lon="9.558116">
        <ele>135.773370</ele>
        <time>2026-03-20T11:38:59.868Z</time>
      </trkpt>
      <trkpt lat="51.382383" lon="9.558407">
        <ele>135.525151</ele>
        <time>2026-03-20T11:39:11.170Z</time>
      </trkpt>
      <trkpt lat="51.383533" lon="9.559260">
        <ele>134.699477</ele>
        <time>2026-03-20T11:39:39.022Z</time>
      </trkpt>
      <trkpt lat="51.384959" lon="9.560253">
        <ele>133.370333</ele>
        <time>2026-03-20T11:40:08.396Z</time>
      </trkpt>
      <trkpt lat="51.385377" lon="9.560558">
        <ele>132.954767</ele>
        <time>2026-03-20T11:40:16.501Z</time>
      </trkpt>
      <trkpt lat="51.385901" lon="9.561003">
        <ele>132.418190</ele>
        <time>2026-03-20T11:40:27.892Z</time>
      </trkpt>
      <trkpt lat="51.386229" lon="9.561198">
        <ele>132.101653</ele>
        <time>2026-03-20T11:40:35.595Z</time>
      </trkpt>
      <trkpt lat="51.387102" lon="9.561885">
        <ele>132.713939</ele>
        <time>2026-03-20T11:41:00.989Z</time>
      </trkpt>
      <trkpt lat="51.387374" lon="9.562160">
        <ele>132.920588</ele>
        <time>2026-03-20T11:41:09.075Z</time>
      </trkpt>
      <trkpt lat="51.388897" lon="9.564032">
        <ele>135.055336</ele>
        <time>2026-03-20T11:41:56.097Z</time>
      </trkpt>
      <trkpt lat="51.388982" lon="9.563859">
        <ele>135.231666</ele>
        <time>2026-03-20T11:42:01.067Z</time>
      </trkpt>
      <trkpt lat="51.389088" lon="9.563702">
        <ele>135.416899</ele>
        <time>2026-03-20T11:42:06.355Z</time>
      </trkpt>
      <trkpt lat="51.389502" lon="9.563521">
        <ele>136.126302</ele>
        <time>2026-03-20T11:42:22.080Z</time>
      </trkpt>
      <trkpt lat="51.389824" lon="9.563281">
        <ele>136.758669</ele>
        <time>2026-03-20T11:42:34.242Z</time>
      </trkpt>
      <trkpt lat="51.390242" lon="9.562765">
        <ele>137.698231</ele>
        <time>2026-03-20T11:42:49.378Z</time>
      </trkpt>
      <trkpt lat="51.390629" lon="9.562351">
        <ele>138.526795</ele>
        <time>2026-03-20T11:42:58.985Z</time>
      </trkpt>
      <trkpt lat="51.390780" lon="9.562126">
        <ele>138.996167</ele>
        <time>2026-03-20T11:43:03.775Z</time>
      </trkpt>
      <trkpt lat="51.391072" lon="9.561740">
        <ele>140.188302</ele>
        <time>2026-03-20T11:43:15.091Z</time>
      </trkpt>
      <trkpt lat="51.391239" lon="9.561587">
        <ele>140.794140</ele>
        <time>2026-03-20T11:43:21.579Z</time>
      </trkpt>
      <trkpt lat="51.391476" lon="9.561470">
        <ele>141.575169</ele>
        <time>2026-03-20T11:43:30.695Z</time>
      </trkpt>
      <trkpt lat="51.391523" lon="9.561466">
        <ele>141.723401</ele>
        <time>2026-03-20T11:43:32.397Z</time>
      </trkpt>
      <trkpt lat="51.391574" lon="9.561471">
        <ele>141.884322</ele>
        <time>2026-03-20T11:43:34.470Z</time>
      </trkpt>
      <trkpt lat="51.391647" lon="9.561495">
        <ele>142.119019</ele>
        <time>2026-03-20T11:43:37.364Z</time>
      </trkpt>
      <trkpt lat="51.391745" lon="9.561533">
        <ele>142.436570</ele>
        <time>2026-03-20T11:43:41.532Z</time>
      </trkpt>
      <trkpt lat="51.391877" lon="9.561480">
        <ele>142.865144</ele>
        <time>2026-03-20T11:43:47.242Z</time>
      </trkpt>
      <trkpt lat="51.391962" lon="9.561380">
        <ele>143.197236</ele>
        <time>2026-03-20T11:43:51.531Z</time>
      </trkpt>
      <trkpt lat="51.392131" lon="9.561082">
        <ele>143.988602</ele>
        <time>2026-03-20T11:44:01.983Z</time>
      </trkpt>
      <trkpt lat="51.392468" lon="9.560471">
        <ele>145.232928</ele>
        <time>2026-03-20T11:44:22.607Z</time>
      </trkpt>
      <trkpt lat="51.393343" lon="9.558886">
        <ele>148.113439</ele>
        <time>2026-03-20T11:44:59.403Z</time>
      </trkpt>
      <trkpt lat="51.393466" lon="9.558568">
        <ele>148.469457</ele>
        <time>2026-03-20T11:45:05.713Z</time>
      </trkpt>
      <trkpt lat="51.393514" lon="9.558405">
        <ele>148.577346</ele>
        <time>2026-03-20T11:45:08.853Z</time>
      </trkpt>
      <trkpt lat="51.393584" lon="9.557994">
        <ele>148.832364</ele>
        <time>2026-03-20T11:45:16.359Z</time>
      </trkpt>
      <trkpt lat="51.393648" lon="9.557487">
        <ele>149.141993</ele>
        <time>2026-03-20T11:45:24.991Z</time>
      </trkpt>
      <trkpt lat="51.393798" lon="9.556869">
        <ele>149.538919</ele>
        <time>2026-03-20T11:45:35.585Z</time>
      </trkpt>
      <trkpt lat="51.393851" lon="9.556732">
        <ele>149.635407</ele>
        <time>2026-03-20T11:45:38.155Z</time>
      </trkpt>
      <trkpt lat="51.393948" lon="9.556586">
        <ele>149.763064</ele>
        <time>2026-03-20T11:45:41.438Z</time>
      </trkpt>
      <trkpt lat="51.394087" lon="9.556474">
        <ele>149.912314</ele>
        <time>2026-03-20T11:45:45.150Z</time>
      </trkpt>
      <trkpt lat="51.394291" lon="9.556380">
        <ele>150.135347</ele>
        <time>2026-03-20T11:45:50.035Z</time>
      </trkpt>
      <trkpt lat="51.394783" lon="9.556165">
        <ele>150.854410</ele>
        <time>2026-03-20T11:46:02.441Z</time>
      </trkpt>
      <trkpt lat="51.394853" lon="9.556104">
        <ele>150.966759</ele>
        <time>2026-03-20T11:46:04.491Z</time>
      </trkpt>
      <trkpt lat="51.394949" lon="9.555994">
        <ele>151.133159</ele>
        <time>2026-03-20T11:46:07.609Z</time>
      </trkpt>
      <trkpt lat="51.395128" lon="9.555677">
        <ele>151.509304</ele>
        <time>2026-03-20T11:46:14.769Z</time>
      </trkpt>
      <trkpt lat="51.395310" lon="9.555514">
        <ele>151.803280</ele>
        <time>2026-03-20T11:46:20.932Z</time>
      </trkpt>
      <trkpt lat="51.395640" lon="9.555294">
        <ele>152.307242</ele>
        <time>2026-03-20T11:46:31.792Z</time>
      </trkpt>
      <trkpt lat="51.395875" lon="9.555069">
        <ele>152.812710</ele>
        <time>2026-03-20T11:46:40.159Z</time>
      </trkpt>
      <trkpt lat="51.396045" lon="9.554534">
        <ele>154.106540</ele>
        <time>2026-03-20T11:46:52.734Z</time>
      </trkpt>
      <trkpt lat="51.396428" lon="9.553986">
        <ele>155.879817</ele>
        <time>2026-03-20T11:47:12.373Z</time>
      </trkpt>
      <trkpt lat="51.396510" lon="9.553938">
        <ele>156.181334</ele>
        <time>2026-03-20T11:47:15.644Z</time>
      </trkpt>
      <trkpt lat="51.396658" lon="9.553908">
        <ele>156.696582</ele>
        <time>2026-03-20T11:47:21.403Z</time>
      </trkpt>
      <trkpt lat="51.396979" lon="9.553917">
        <ele>157.805450</ele>
        <time>2026-03-20T11:47:33.155Z</time>
      </trkpt>
      <trkpt lat="51.397038" lon="9.553917">
        <ele>158.009230</ele>
        <time>2026-03-20T11:47:35.298Z</time>
      </trkpt>
      <trkpt lat="51.397204" lon="9.553814">
        <ele>158.624040</ele>
        <time>2026-03-20T11:47:41.597Z</time>
      </trkpt>
      <trkpt lat="51.397455" lon="9.553359">
        <ele>160.037154</ele>
        <time>2026-03-20T11:47:55.648Z</time>
      </trkpt>
      <trkpt lat="51.397558" lon="9.553097">
        <ele>160.767213</ele>
        <time>2026-03-20T11:48:03.450Z</time>
      </trkpt>
      <trkpt lat="51.397572" lon="9.553061">
        <ele>160.867220</ele>
        <time>2026-03-20T11:48:04.568Z</time>
      </trkpt>
      <trkpt lat="51.397663" lon="9.552862">
        <ele>161.448881</ele>
        <time>2026-03-20T11:48:10.704Z</time>
      </trkpt>
      <trkpt lat="51.397880" lon="9.552535">
        <ele>162.574319</ele>
        <time>2026-03-20T11:48:22.253Z</time>
      </trkpt>
      <trkpt lat="51.398232" lon="9.552240">
        <ele>164.075227</ele>
        <time>2026-03-20T11:48:36.749Z</time>
      </trkpt>
      <trkpt lat="51.398537" lon="9.552091">
        <ele>165.280037</ele>
        <time>2026-03-20T11:48:48.268Z</time>
      </trkpt>
      <trkpt lat="51.398719" lon="9.552028">
        <ele>165.932998</ele>
        <time>2026-03-20T11:48:55.164Z</time>
      </trkpt>
      <trkpt lat="51.399260" lon="9.551463">
        <ele>168.033860</ele>
        <time>2026-03-20T11:49:18.152Z</time>
      </trkpt>
      <trkpt lat="51.399410" lon="9.551428">
        <ele>168.527042</ele>
        <time>2026-03-20T11:49:23.262Z</time>
      </trkpt>
      <trkpt lat="51.399582" lon="9.551491">
        <ele>169.101085</ele>
        <time>2026-03-20T11:49:29.101Z</time>
      </trkpt>
      <trkpt lat="51.399672" lon="9.551530">
        <ele>169.404420</ele>
        <time>2026-03-20T11:49:32.223Z</time>
      </trkpt>
      <trkpt lat="51.399751" lon="9.551526">
        <ele>169.661582</ele>
        <time>2026-03-20T11:49:34.949Z</time>
      </trkpt>
      <trkpt lat="51.400036" lon="9.551699">
        <ele>170.653121</ele>
        <time>2026-03-20T11:49:45.404Z</time>
      </trkpt>
      <trkpt lat="51.400138" lon="9.551735">
        <ele>170.992937</ele>
        <time>2026-03-20T11:49:48.966Z</time>
      </trkpt>
      <trkpt lat="51.400263" lon="9.551727">
        <ele>171.399959</ele>
        <time>2026-03-20T11:49:53.316Z</time>
      </trkpt>
      <trkpt lat="51.400571" lon="9.551623">
        <ele>173.071548</ele>
        <time>2026-03-20T11:50:04.532Z</time>
      </trkpt>
      <trkpt lat="51.401146" lon="9.551238">
        <ele>176.477134</ele>
        <time>2026-03-20T11:50:29.334Z</time>
      </trkpt>
      <trkpt lat="51.401816" lon="9.550378">
        <ele>181.168078</ele>
        <time>2026-03-20T11:51:11.801Z</time>
      </trkpt>
      <trkpt lat="51.402101" lon="9.549842">
        <ele>184.841318</ele>
        <time>2026-03-20T11:51:35.379Z</time>
      </trkpt>
      <trkpt lat="51.402837" lon="9.547894">
        <ele>196.987400</ele>
        <time>2026-03-20T11:52:56.844Z</time>
      </trkpt>
      <trkpt lat="51.403032" lon="9.547071">
        <ele>202.064040</ele>
        <time>2026-03-20T11:53:31.216Z</time>
      </trkpt>
      <trkpt lat="51.403377" lon="9.546480">
        <ele>206.731434</ele>
        <time>2026-03-20T11:54:03.227Z</time>
      </trkpt>
      <trkpt lat="51.403960" lon="9.545437">
        <ele>214.315279</ele>
        <time>2026-03-20T11:54:54.752Z</time>
      </trkpt>
      <trkpt lat="51.405690" lon="9.544448">
        <ele>225.523474</ele>
        <time>2026-03-20T11:56:18.509Z</time>
      </trkpt>
      <trkpt lat="51.407212" lon="9.544040">
        <ele>232.681677</ele>
        <time>2026-03-20T11:57:18.210Z</time>
      </trkpt>
      <trkpt lat="51.408536" lon="9.543641">
        <ele>240.395837</ele>
        <time>2026-03-20T11:58:18.928Z</time>
      </trkpt>
      <trkpt lat="51.409018" lon="9.543424">
        <ele>243.284097</ele>
        <time>2026-03-20T11:58:43.718Z</time>
      </trkpt>
      <trkpt lat="51.410130" lon="9.542833">
        <ele>249.614653</ele>
        <time>2026-03-20T11:59:38.057Z</time>
      </trkpt>
      <trkpt lat="51.410955" lon="9.542386">
        <ele>253.943502</ele>
        <time>2026-03-20T12:00:12.053Z</time>
      </trkpt>
      <trkpt lat="51.411487" lon="9.542097">
        <ele>256.103679</ele>
        <time>2026-03-20T12:00:32.713Z</time>
      </trkpt>
      <trkpt lat="51.412044" lon="9.541729">
        <ele>258.420492</ele>
        <time>2026-03-20T12:00:55.184Z</time>
      </trkpt>
      <trkpt lat="51.412582" lon="9.541222">
        <ele>260.746065</ele>
        <time>2026-03-20T12:01:18.700Z</time>
      </trkpt>
      <trkpt lat="51.412957" lon="9.541007">
        <ele>262.149583</ele>
        <time>2026-03-20T12:01:33.675Z</time>
      </trkpt>
      <trkpt lat="51.413874" lon="9.540489">
        <ele>265.575950</ele>
        <time>2026-03-20T12:02:08.224Z</time>
      </trkpt>
      <trkpt lat="51.414660" lon="9.540345">
        <ele>268.668832</ele>
        <time>2026-03-20T12:02:36.368Z</time>
      </trkpt>
      <trkpt lat="51.415479" lon="9.540083">
        <ele>272.040480</ele>
        <time>2026-03-20T12:03:08.850Z</time>
      </trkpt>
      <trkpt lat="51.415647" lon="9.539987">
        <ele>272.760517</ele>
        <time>2026-03-20T12:03:16.100Z</time>
      </trkpt>
      <trkpt lat="51.415748" lon="9.539879">
        <ele>273.250633</ele>
        <time>2026-03-20T12:03:21.203Z</time>
      </trkpt>
      <trkpt lat="51.415782" lon="9.539842">
        <ele>273.416527</ele>
        <time>2026-03-20T12:03:22.969Z</time>
      </trkpt>
      <trkpt lat="51.416126" lon="9.539295">
        <ele>275.271080</ele>
        <time>2026-03-20T12:03:43.833Z</time>
      </trkpt>
      <trkpt lat="51.416320" lon="9.538807">
        <ele>276.647956</ele>
        <time>2026-03-20T12:03:59.364Z</time>
      </trkpt>
      <trkpt lat="51.416646" lon="9.537746">
        <ele>279.462016</ele>
        <time>2026-03-20T12:04:28.124Z</time>
      </trkpt>
      <trkpt lat="51.416720" lon="9.537419">
        <ele>280.289645</ele>
        <time>2026-03-20T12:04:34.886Z</time>
      </trkpt>
      <trkpt lat="51.416824" lon="9.536509">
        <ele>280.633895</ele>
        <time>2026-03-20T12:04:50.899Z</time>
      </trkpt>
      <trkpt lat="51.417454" lon="9.536590">
        <ele>280.910716</ele>
        <time>2026-03-20T12:05:03.999Z</time>
      </trkpt>
      <trkpt lat="51.418079" lon="9.536601">
        <ele>281.183539</ele>
        <time>2026-03-20T12:05:17.390Z</time>
      </trkpt>
      <trkpt lat="51.418105" lon="9.536600">
        <ele>281.191982</ele>
        <time>2026-03-20T12:05:17.973Z</time>
      </trkpt>
      <trkpt lat="51.418328" lon="9.536628">
        <ele>281.264598</ele>
        <time>2026-03-20T12:05:23.081Z</time>
      </trkpt>
      <trkpt lat="51.418468" lon="9.536640">
        <ele>281.310112</ele>
        <time>2026-03-20T12:05:26.325Z</time>
      </trkpt>
      <trkpt lat="51.418607" lon="9.536708">
        <ele>281.357290</ele>
        <time>2026-03-20T12:05:29.774Z</time>
      </trkpt>
      <trkpt lat="51.418806" lon="9.536932">
        <ele>281.436221</ele>
        <time>2026-03-20T12:05:35.601Z</time>
      </trkpt>
      <trkpt lat="51.418858" lon="9.537001">
        <ele>281.458132</ele>
        <time>2026-03-20T12:05:37.170Z</time>
      </trkpt>
      <trkpt lat="51.419126" lon="9.537222">
        <ele>281.555966</ele>
        <time>2026-03-20T12:05:44.504Z</time>
      </trkpt>
      <trkpt lat="51.419659" lon="9.537382">
        <ele>281.732003</ele>
        <time>2026-03-20T12:05:58.005Z</time>
      </trkpt>
      <trkpt lat="51.420556" lon="9.537565">
        <ele>282.728352</ele>
        <time>2026-03-20T12:06:18.848Z</time>
      </trkpt>
      <trkpt lat="51.421214" lon="9.537700">
        <ele>283.524052</ele>
        <time>2026-03-20T12:06:37.699Z</time>
      </trkpt>
      <trkpt lat="51.421765" lon="9.537823">
        <ele>284.446778</ele>
        <time>2026-03-20T12:06:55.128Z</time>
      </trkpt>
      <trkpt lat="51.422446" lon="9.537978">
        <ele>286.054880</ele>
        <time>2026-03-20T12:07:18.544Z</time>
      </trkpt>
      <trkpt lat="51.422530" lon="9.537996">
        <ele>286.253014</ele>
        <time>2026-03-20T12:07:21.361Z</time>
      </trkpt>
      <trkpt lat="51.422737" lon="9.538039">
        <ele>286.741013</ele>
        <time>2026-03-20T12:07:27.928Z</time>
      </trkpt>
      <trkpt lat="51.422984" lon="9.538094">
        <ele>287.324028</ele>
        <time>2026-03-20T12:07:35.254Z</time>
      </trkpt>
      <trkpt lat="51.423090" lon="9.538115">
        <ele>287.573735</ele>
        <time>2026-03-20T12:07:38.376Z</time>
      </trkpt>
      <trkpt lat="51.423355" lon="9.538165">
        <ele>288.182418</ele>
        <time>2026-03-20T12:07:46.279Z</time>
      </trkpt>
      <trkpt lat="51.423428" lon="9.537361">
        <ele>289.111326</ele>
        <time>2026-03-20T12:08:01.774Z</time>
      </trkpt>
      <trkpt lat="51.424135" lon="9.536798">
        <ele>290.558626</ele>
        <time>2026-03-20T12:08:25.926Z</time>
      </trkpt>
      <trkpt lat="51.424789" lon="9.536220">
        <ele>291.952337</ele>
        <time>2026-03-20T12:08:48.844Z</time>
      </trkpt>
      <trkpt lat="51.425430" lon="9.535583">
        <ele>293.402554</ele>
        <time>2026-03-20T12:09:10.571Z</time>
      </trkpt>
      <trkpt lat="51.425512" lon="9.535505">
        <ele>293.585904</ele>
        <time>2026-03-20T12:09:13.362Z</time>
      </trkpt>
      <trkpt lat="51.425855" lon="9.535139">
        <ele>294.378207</ele>
        <time>2026-03-20T12:09:25.902Z</time>
      </trkpt>
      <trkpt lat="51.426186" lon="9.534920">
        <ele>295.309991</ele>
        <time>2026-03-20T12:09:37.813Z</time>
      </trkpt>
      <trkpt lat="51.426350" lon="9.534855">
        <ele>296.067616</ele>
        <time>2026-03-20T12:09:43.800Z</time>
      </trkpt>
      <trkpt lat="51.426510" lon="9.534828">
        <ele>296.789137</ele>
        <time>2026-03-20T12:09:49.773Z</time>
      </trkpt>
      <trkpt lat="51.427045" lon="9.534920">
        <ele>299.202229</ele>
        <time>2026-03-20T12:10:12.238Z</time>
      </trkpt>
      <trkpt lat="51.428690" lon="9.535152">
        <ele>304.983390</ele>
        <time>2026-03-20T12:11:26.304Z</time>
      </trkpt>
      <trkpt lat="51.428664" lon="9.535518">
        <ele>305.555851</ele>
        <time>2026-03-20T12:11:34.208Z</time>
      </trkpt>
      <trkpt lat="51.429888" lon="9.532844">
        <ele>306.376934</ele>
        <time>2026-03-20T12:12:45.743Z</time>
      </trkpt>
      <trkpt lat="51.431346" lon="9.529530">
        <ele>304.778892</ele>
        <time>2026-03-20T12:14:10.979Z</time>
      </trkpt>
      <trkpt lat="51.431576" lon="9.529556">
        <ele>305.182546</ele>
        <time>2026-03-20T12:14:19.875Z</time>
      </trkpt>
      <trkpt lat="51.431845" lon="9.529463">
        <ele>305.664292</ele>
        <time>2026-03-20T12:14:30.897Z</time>
      </trkpt>
      <trkpt lat="51.432209" lon="9.529070">
        <ele>306.432451</ele>
        <time>2026-03-20T12:14:50.330Z</time>
      </trkpt>
      <trkpt lat="51.432826" lon="9.528554">
        <ele>307.934134</ele>
        <time>2026-03-20T12:15:25.750Z</time>
      </trkpt>
      <trkpt lat="51.433796" lon="9.527907">
        <ele>313.157157</ele>
        <time>2026-03-20T12:16:27.407Z</time>
      </trkpt>
      <trkpt lat="51.434328" lon="9.527387">
        <ele>316.254551</ele>
        <time>2026-03-20T12:17:04.438Z</time>
      </trkpt>
      <trkpt lat="51.434617" lon="9.527043">
        <ele>317.301972</ele>
        <time>2026-03-20T12:17:24.483Z</time>
      </trkpt>
      <trkpt lat="51.434905" lon="9.526464">
        <ele>318.536489</ele>
        <time>2026-03-20T12:17:48.655Z</time>
      </trkpt>
      <trkpt lat="51.435444" lon="9.525102">
        <ele>321.225192</ele>
        <time>2026-03-20T12:18:32.045Z</time>
      </trkpt>
      <trkpt lat="51.435866" lon="9.524484">
        <ele>321.781105</ele>
        <time>2026-03-20T12:18:53.992Z</time>
      </trkpt>
      <trkpt lat="51.436226" lon="9.524156">
        <ele>322.173375</ele>
        <time>2026-03-20T12:19:09.628Z</time>
      </trkpt>
      <trkpt lat="51.435791" lon="9.523427">
        <ele>322.769420</ele>
        <time>2026-03-20T12:19:34.125Z</time>
      </trkpt>
      <trkpt lat="51.435537" lon="9.522972">
        <ele>323.597462</ele>
        <time>2026-03-20T12:19:51.574Z</time>
      </trkpt>
      <trkpt lat="51.435386" lon="9.522547">
        <ele>324.643559</ele>
        <time>2026-03-20T12:20:07.176Z</time>
      </trkpt>
      <trkpt lat="51.435319" lon="9.522424">
        <ele>324.992858</ele>
        <time>2026-03-20T12:20:12.493Z</time>
      </trkpt>
      <trkpt lat="51.435209" lon="9.522294">
        <ele>325.461549</ele>
        <time>2026-03-20T12:20:19.685Z</time>
      </trkpt>
      <trkpt lat="51.434715" lon="9.521854">
        <ele>327.399855</ele>
        <time>2026-03-20T12:20:49.655Z</time>
      </trkpt>
      <trkpt lat="51.434351" lon="9.521634">
        <ele>328.734200</ele>
        <time>2026-03-20T12:21:10.889Z</time>
      </trkpt>
      <trkpt lat="51.433969" lon="9.521347">
        <ele>329.498645</ele>
        <time>2026-03-20T12:21:33.383Z</time>
      </trkpt>
      <trkpt lat="51.433585" lon="9.521153">
        <ele>329.989858</ele>
        <time>2026-03-20T12:21:53.290Z</time>
      </trkpt>
      <trkpt lat="51.433223" lon="9.521043">
        <ele>330.439396</ele>
        <time>2026-03-20T12:22:08.885Z</time>
      </trkpt>
      <trkpt lat="51.432792" lon="9.520812">
        <ele>330.993845</ele>
        <time>2026-03-20T12:22:24.931Z</time>
      </trkpt>
      <trkpt lat="51.432686" lon="9.520788">
        <ele>331.124460</ele>
        <time>2026-03-20T12:22:28.479Z</time>
      </trkpt>
      <trkpt lat="51.432690" lon="9.520686">
        <ele>331.202200</ele>
        <time>2026-03-20T12:22:30.509Z</time>
      </trkpt>
      <trkpt lat="51.432633" lon="9.520230">
        <ele>330.969692</ele>
        <time>2026-03-20T12:22:39.587Z</time>
      </trkpt>
      <trkpt lat="51.432645" lon="9.519540">
        <ele>330.209788</ele>
        <time>2026-03-20T12:22:52.701Z</time>
      </trkpt>
      <trkpt lat="51.432622" lon="9.519411">
        <ele>330.062080</ele>
        <time>2026-03-20T12:22:55.222Z</time>
      </trkpt>
      <trkpt lat="51.432489" lon="9.519097">
        <ele>329.644169</ele>
        <time>2026-03-20T12:23:02.345Z</time>
      </trkpt>
      <trkpt lat="51.432429" lon="9.518870">
        <ele>329.372735</ele>
        <time>2026-03-20T12:23:06.972Z</time>
      </trkpt>
      <trkpt lat="51.432379" lon="9.518465">
        <ele>328.918218</ele>
        <time>2026-03-20T12:23:15.000Z</time>
      </trkpt>
      <trkpt lat="51.432389" lon="9.518322">
        <ele>328.759804</ele>
        <time>2026-03-20T12:23:17.898Z</time>
      </trkpt>
      <trkpt lat="51.432487" lon="9.517894">
        <ele>328.257851</ele>
        <time>2026-03-20T12:23:27.488Z</time>
      </trkpt>
      <trkpt lat="51.432510" lon="9.517170">
        <ele>328.481774</ele>
        <time>2026-03-20T12:23:44.224Z</time>
      </trkpt>
      <trkpt lat="51.432482" lon="9.516674">
        <ele>328.756892</ele>
        <time>2026-03-20T12:23:56.781Z</time>
      </trkpt>
      <trkpt lat="51.432346" lon="9.515861">
        <ele>329.221889</ele>
        <time>2026-03-20T12:24:19.447Z</time>
      </trkpt>
      <trkpt lat="51.432355" lon="9.515720">
        <ele>329.300187</ele>
        <time>2026-03-20T12:24:23.387Z</time>
      </trkpt>
      <trkpt lat="51.432500" lon="9.514991">
        <ele>329.722894</ele>
        <time>2026-03-20T12:24:44.396Z</time>
      </trkpt>
      <trkpt lat="51.432524" lon="9.514703">
        <ele>329.925818</ele>
        <time>2026-03-20T12:24:51.972Z</time>
      </trkpt>
      <trkpt lat="51.432519" lon="9.514212">
        <ele>330.274115</ele>
        <time>2026-03-20T12:25:04.754Z</time>
      </trkpt>
      <trkpt lat="51.432654" lon="9.513711">
        <ele>330.661228</ele>
        <time>2026-03-20T12:25:19.138Z</time>
      </trkpt>
      <trkpt lat="51.432847" lon="9.513203">
        <ele>331.083167</ele>
        <time>2026-03-20T12:25:35.030Z</time>
      </trkpt>
      <trkpt lat="51.432981" lon="9.512200">
        <ele>331.759286</ele>
        <time>2026-03-20T12:26:01.308Z</time>
      </trkpt>
      <trkpt lat="51.432987" lon="9.512060">
        <ele>331.690490</ele>
        <time>2026-03-20T12:26:04.639Z</time>
      </trkpt>
      <trkpt lat="51.432958" lon="9.511864">
        <ele>331.591733</ele>
        <time>2026-03-20T12:26:09.327Z</time>
      </trkpt>
      <trkpt lat="51.432797" lon="9.511254">
        <ele>331.266989</ele>
        <time>2026-03-20T12:26:24.478Z</time>
      </trkpt>
      <trkpt lat="51.432781" lon="9.511155">
        <ele>331.216851</ele>
        <time>2026-03-20T12:26:26.670Z</time>
      </trkpt>
      <trkpt lat="51.432788" lon="9.511078">
        <ele>331.178703</ele>
        <time>2026-03-20T12:26:28.402Z</time>
      </trkpt>
      <trkpt lat="51.432825" lon="9.511026">
        <ele>331.140019</ele>
        <time>2026-03-20T12:26:29.431Z</time>
      </trkpt>
      <trkpt lat="51.433212" lon="9.510813">
        <ele>330.818280</ele>
        <time>2026-03-20T12:26:37.401Z</time>
      </trkpt>
      <trkpt lat="51.433660" lon="9.510526">
        <ele>330.438932</ele>
        <time>2026-03-20T12:26:46.043Z</time>
      </trkpt>
      <trkpt lat="51.433694" lon="9.510397">
        <ele>330.370272</ele>
        <time>2026-03-20T12:26:47.530Z</time>
      </trkpt>
      <trkpt lat="51.433771" lon="9.510399">
        <ele>330.199439</ele>
        <time>2026-03-20T12:26:48.865Z</time>
      </trkpt>
      <trkpt lat="51.433784" lon="9.510075">
        <ele>329.727963</ele>
        <time>2026-03-20T12:26:52.364Z</time>
      </trkpt>
      <trkpt lat="51.433732" lon="9.508237">
        <ele>327.056134</ele>
        <time>2026-03-20T12:27:11.787Z</time>
      </trkpt>
      <trkpt lat="51.433687" lon="9.507061">
        <ele>325.453736</ele>
        <time>2026-03-20T12:27:24.490Z</time>
      </trkpt>
      <trkpt lat="51.433793" lon="9.503849">
        <ele>320.530416</ele>
        <time>2026-03-20T12:28:00.080Z</time>
      </trkpt>
      <trkpt lat="51.433735" lon="9.503317">
        <ele>319.333050</ele>
        <time>2026-03-20T12:28:05.598Z</time>
      </trkpt>
      <trkpt lat="51.432754" lon="9.499285">
        <ele>307.417074</ele>
        <time>2026-03-20T12:28:46.592Z</time>
      </trkpt>
      <trkpt lat="51.431440" lon="9.493695">
        <ele>289.987864</ele>
        <time>2026-03-20T12:29:43.280Z</time>
      </trkpt>
      <trkpt lat="51.431049" lon="9.490842">
        <ele>283.146025</ele>
        <time>2026-03-20T12:30:36.697Z</time>
      </trkpt>
      <trkpt lat="51.430914" lon="9.489799">
        <ele>279.999858</ele>
        <time>2026-03-20T12:30:46.827Z</time>
      </trkpt>
      <trkpt lat="51.430900" lon="9.489653">
        <ele>279.563578</ele>
        <time>2026-03-20T12:30:48.216Z</time>
      </trkpt>
      <trkpt lat="51.430696" lon="9.488150">
        <ele>275.039786</ele>
        <time>2026-03-20T12:31:02.523Z</time>
      </trkpt>
      <trkpt lat="51.430539" lon="9.486897">
        <ele>271.492931</ele>
        <time>2026-03-20T12:31:14.799Z</time>
      </trkpt>
      <trkpt lat="51.430543" lon="9.486759">
        <ele>271.109539</ele>
        <time>2026-03-20T12:31:16.157Z</time>
      </trkpt>
      <trkpt lat="51.430551" lon="9.486725">
        <ele>271.008686</ele>
        <time>2026-03-20T12:31:16.509Z</time>
      </trkpt>
      <trkpt lat="51.430481" lon="9.486491">
        <ele>270.288404</ele>
        <time>2026-03-20T12:31:19.067Z</time>
      </trkpt>
      <trkpt lat="51.429922" lon="9.485093">
        <ele>265.799985</ele>
        <time>2026-03-20T12:31:35.171Z</time>
      </trkpt>
      <trkpt lat="51.429801" lon="9.484661">
        <ele>264.581544</ele>
        <time>2026-03-20T12:31:39.649Z</time>
      </trkpt>
      <trkpt lat="51.429082" lon="9.484746">
        <ele>261.606532</ele>
        <time>2026-03-20T12:31:50.647Z</time>
      </trkpt>
      <trkpt lat="51.428346" lon="9.484881">
        <ele>259.477949</ele>
        <time>2026-03-20T12:32:02.631Z</time>
      </trkpt>
      <trkpt lat="51.428220" lon="9.484837">
        <ele>259.308532</ele>
        <time>2026-03-20T12:32:04.977Z</time>
      </trkpt>
      <trkpt lat="51.428066" lon="9.484621">
        <ele>259.039755</ele>
        <time>2026-03-20T12:32:08.914Z</time>
      </trkpt>
      <trkpt lat="51.427924" lon="9.484512">
        <ele>258.832930</ele>
        <time>2026-03-20T12:32:12.226Z</time>
      </trkpt>
      <trkpt lat="51.427816" lon="9.484497">
        <ele>258.690510</ele>
        <time>2026-03-20T12:32:14.544Z</time>
      </trkpt>
      <trkpt lat="51.427477" lon="9.484624">
        <ele>258.233144</ele>
        <time>2026-03-20T12:32:22.005Z</time>
      </trkpt>
      <trkpt lat="51.427406" lon="9.484608">
        <ele>258.138949</ele>
        <time>2026-03-20T12:32:23.551Z</time>
      </trkpt>
      <trkpt lat="51.427335" lon="9.483995">
        <ele>257.628214</ele>
        <time>2026-03-20T12:32:31.593Z</time>
      </trkpt>
      <trkpt lat="51.427291" lon="9.483622">
        <ele>257.178171</ele>
        <time>2026-03-20T12:32:36.306Z</time>
      </trkpt>
      <trkpt lat="51.427249" lon="9.483381">
        <ele>256.849916</ele>
        <time>2026-03-20T12:32:39.297Z</time>
      </trkpt>
      <trkpt lat="51.427123" lon="9.482414">
        <ele>255.554024</ele>
        <time>2026-03-20T12:32:50.413Z</time>
      </trkpt>
      <trkpt lat="51.427096" lon="9.481768">
        <ele>254.704712</ele>
        <time>2026-03-20T12:32:57.401Z</time>
      </trkpt>
      <trkpt lat="51.427084" lon="9.480906">
        <ele>253.389114</ele>
        <time>2026-03-20T12:33:06.041Z</time>
      </trkpt>
      <trkpt lat="51.427160" lon="9.480182">
        <ele>251.494110</ele>
        <time>2026-03-20T12:33:13.219Z</time>
      </trkpt>
      <trkpt lat="51.427214" lon="9.479654">
        <ele>250.113087</ele>
        <time>2026-03-20T12:33:18.423Z</time>
      </trkpt>
      <trkpt lat="51.427237" lon="9.479470">
        <ele>249.628718</ele>
        <time>2026-03-20T12:33:20.223Z</time>
      </trkpt>
      <trkpt lat="51.427250" lon="9.479359">
        <ele>249.337208</ele>
        <time>2026-03-20T12:33:21.303Z</time>
      </trkpt>
      <trkpt lat="51.427311" lon="9.478805">
        <ele>247.885166</ele>
        <time>2026-03-20T12:33:26.655Z</time>
      </trkpt>
      <trkpt lat="51.427317" lon="9.478684">
        <ele>247.571870</ele>
        <time>2026-03-20T12:33:27.805Z</time>
      </trkpt>
      <trkpt lat="51.427330" lon="9.478467">
        <ele>247.009197</ele>
        <time>2026-03-20T12:33:29.857Z</time>
      </trkpt>
      <trkpt lat="51.427355" lon="9.478282">
        <ele>246.520613</ele>
        <time>2026-03-20T12:33:31.636Z</time>
      </trkpt>
      <trkpt lat="51.427503" lon="9.476191">
        <ele>242.167979</ele>
        <time>2026-03-20T12:33:52.441Z</time>
      </trkpt>
      <trkpt lat="51.427556" lon="9.475413">
        <ele>240.564745</ele>
        <time>2026-03-20T12:34:00.664Z</time>
      </trkpt>
      <trkpt lat="51.427450" lon="9.474393">
        <ele>240.891719</ele>
        <time>2026-03-20T12:34:13.031Z</time>
      </trkpt>
      <trkpt lat="51.427353" lon="9.474301">
        <ele>240.982718</ele>
        <time>2026-03-20T12:34:15.569Z</time>
      </trkpt>
      <trkpt lat="51.427277" lon="9.474518">
        <ele>241.108031</ele>
        <time>2026-03-20T12:34:19.318Z</time>
      </trkpt>
      <trkpt lat="51.427215" lon="9.474483">
        <ele>241.161106</ele>
        <time>2026-03-20T12:34:21.025Z</time>
      </trkpt>
      <trkpt lat="51.426780" lon="9.474485">
        <ele>241.512372</ele>
        <time>2026-03-20T12:34:33.581Z</time>
      </trkpt>
      <trkpt lat="51.426655" lon="9.474502">
        <ele>241.613672</ele>
        <time>2026-03-20T12:34:37.666Z</time>
      </trkpt>
      <trkpt lat="51.426226" lon="9.474562">
        <ele>242.331984</ele>
        <time>2026-03-20T12:34:53.136Z</time>
      </trkpt>
      <trkpt lat="51.426091" lon="9.474613">
        <ele>242.860243</ele>
        <time>2026-03-20T12:34:58.422Z</time>
      </trkpt>
      <trkpt lat="51.425871" lon="9.475876">
        <ele>245.974558</ele>
        <time>2026-03-20T12:35:30.476Z</time>
      </trkpt>
      <trkpt lat="51.425809" lon="9.476224">
        <ele>246.834093</ele>
        <time>2026-03-20T12:35:39.308Z</time>
      </trkpt>
      <trkpt lat="51.425866" lon="9.477216">
        <ele>249.018835</ele>
        <time>2026-03-20T12:36:02.463Z</time>
      </trkpt>
      <trkpt lat="51.425192" lon="9.476691">
        <ele>250.812615</ele>
        <time>2026-03-20T12:36:28.668Z</time>
      </trkpt>
      <trkpt lat="51.424700" lon="9.476289">
        <ele>252.134502</ele>
        <time>2026-03-20T12:36:47.207Z</time>
      </trkpt>
      <trkpt lat="51.424011" lon="9.475586">
        <ele>252.355370</ele>
        <time>2026-03-20T12:37:05.984Z</time>
      </trkpt>
      <trkpt lat="51.423894" lon="9.475465">
        <ele>252.149130</ele>
        <time>2026-03-20T12:37:08.593Z</time>
      </trkpt>
      <trkpt lat="51.423211" lon="9.474778">
        <ele>250.954766</ele>
        <time>2026-03-20T12:37:22.538Z</time>
      </trkpt>
      <trkpt lat="51.423084" lon="9.474693">
        <ele>250.750898</ele>
        <time>2026-03-20T12:37:24.746Z</time>
      </trkpt>
      <trkpt lat="51.422388" lon="9.474383">
        <ele>250.191059</ele>
        <time>2026-03-20T12:37:36.858Z</time>
      </trkpt>
      <trkpt lat="51.421982" lon="9.474201">
        <ele>250.040109</ele>
        <time>2026-03-20T12:37:45.404Z</time>
      </trkpt>
      <trkpt lat="51.421493" lon="9.473983">
        <ele>249.858372</ele>
        <time>2026-03-20T12:37:56.798Z</time>
      </trkpt>
      <trkpt lat="51.421340" lon="9.473871">
        <ele>249.798150</ele>
        <time>2026-03-20T12:38:01.169Z</time>
      </trkpt>
      <trkpt lat="51.421244" lon="9.473713">
        <ele>249.748892</ele>
        <time>2026-03-20T12:38:04.952Z</time>
      </trkpt>
      <trkpt lat="51.421153" lon="9.473544">
        <ele>249.792981</ele>
        <time>2026-03-20T12:38:08.975Z</time>
      </trkpt>
      <trkpt lat="51.420976" lon="9.473190">
        <ele>250.587176</ele>
        <time>2026-03-20T12:38:17.695Z</time>
      </trkpt>
      <trkpt lat="51.419956" lon="9.470346">
        <ele>255.317875</ele>
        <time>2026-03-20T12:39:30.145Z</time>
      </trkpt>
      <trkpt lat="51.418997" lon="9.467709">
        <ele>256.222489</ele>
        <time>2026-03-20T12:40:11.498Z</time>
      </trkpt>
      <trkpt lat="51.418651" lon="9.466737">
        <ele>255.872253</ele>
        <time>2026-03-20T12:40:24.995Z</time>
      </trkpt>
      <trkpt lat="51.417445" lon="9.463407">
        <ele>255.537601</ele>
        <time>2026-03-20T12:41:15.080Z</time>
      </trkpt>
      <trkpt lat="51.417179" lon="9.462802">
        <ele>256.804715</ele>
        <time>2026-03-20T12:41:26.842Z</time>
      </trkpt>
      <trkpt lat="51.417070" lon="9.462837">
        <ele>257.109837</ele>
        <time>2026-03-20T12:41:29.886Z</time>
      </trkpt>
      <trkpt lat="51.413380" lon="9.465756">
        <ele>268.537227</ele>
        <time>2026-03-20T12:43:57.048Z</time>
      </trkpt>
      <trkpt lat="51.412220" lon="9.466211">
        <ele>270.919158</ele>
        <time>2026-03-20T12:44:31.901Z</time>
      </trkpt>
      <trkpt lat="51.410272" lon="9.466899">
        <ele>272.748294</ele>
        <time>2026-03-20T12:45:23.686Z</time>
      </trkpt>
      <trkpt lat="51.410206" lon="9.466919">
        <ele>272.776584</ele>
        <time>2026-03-20T12:45:25.312Z</time>
      </trkpt>
      <trkpt lat="51.409579" lon="9.467135">
        <ele>273.046698</ele>
        <time>2026-03-20T12:45:40.530Z</time>
      </trkpt>
      <trkpt lat="51.408240" lon="9.467422">
        <ele>271.619420</ele>
        <time>2026-03-20T12:46:07.742Z</time>
      </trkpt>
      <trkpt lat="51.407295" lon="9.467645">
        <ele>269.795352</ele>
        <time>2026-03-20T12:46:23.894Z</time>
      </trkpt>
      <trkpt lat="51.406651" lon="9.467804">
        <ele>267.654035</ele>
        <time>2026-03-20T12:46:34.322Z</time>
      </trkpt>
      <trkpt lat="51.404649" lon="9.468321">
        <ele>261.545606</ele>
        <time>2026-03-20T12:47:06.984Z</time>
      </trkpt>
      <trkpt lat="51.402503" lon="9.468857">
        <ele>258.278114</ele>
        <time>2026-03-20T12:47:46.084Z</time>
      </trkpt>
      <trkpt lat="51.401306" lon="9.469166">
        <ele>260.363316</ele>
        <time>2026-03-20T12:48:22.285Z</time>
      </trkpt>
      <trkpt lat="51.399536" lon="9.469607">
        <ele>263.511088</ele>
        <time>2026-03-20T12:49:27.995Z</time>
      </trkpt>
      <trkpt lat="51.399540" lon="9.469769">
        <ele>263.617283</ele>
        <time>2026-03-20T12:49:30.556Z</time>
      </trkpt>
      <trkpt lat="51.399512" lon="9.469975">
        <ele>263.755381</ele>
        <time>2026-03-20T12:49:33.526Z</time>
      </trkpt>
      <trkpt lat="51.399416" lon="9.470213">
        <ele>263.941019</ele>
        <time>2026-03-20T12:49:37.134Z</time>
      </trkpt>
      <trkpt lat="51.399268" lon="9.470068">
        <ele>264.123132</ele>
        <time>2026-03-20T12:49:40.337Z</time>
      </trkpt>
      <trkpt lat="51.399079" lon="9.469952">
        <ele>264.335612</ele>
        <time>2026-03-20T12:49:43.852Z</time>
      </trkpt>
      <trkpt lat="51.399055" lon="9.470039">
        <ele>264.397921</ele>
        <time>2026-03-20T12:49:44.867Z</time>
      </trkpt>
      <trkpt lat="51.398530" lon="9.469886">
        <ele>262.629243</ele>
        <time>2026-03-20T12:49:53.326Z</time>
      </trkpt>
      <trkpt lat="51.398222" lon="9.469954">
        <ele>261.525326</ele>
        <time>2026-03-20T12:49:58.091Z</time>
      </trkpt>
      <trkpt lat="51.398072" lon="9.470056">
        <ele>260.946784</ele>
        <time>2026-03-20T12:50:00.622Z</time>
      </trkpt>
      <trkpt lat="51.398034" lon="9.470159">
        <ele>260.681706</ele>
        <time>2026-03-20T12:50:01.794Z</time>
      </trkpt>
      <trkpt lat="51.397420" lon="9.470451">
        <ele>258.407684</ele>
        <time>2026-03-20T12:50:11.961Z</time>
      </trkpt>
      <trkpt lat="51.397131" lon="9.470551">
        <ele>257.495087</ele>
        <time>2026-03-20T12:50:16.809Z</time>
      </trkpt>
      <trkpt lat="51.396947" lon="9.470565">
        <ele>256.972500</ele>
        <time>2026-03-20T12:50:19.852Z</time>
      </trkpt>
      <trkpt lat="51.396605" lon="9.470562">
        <ele>256.002248</ele>
        <time>2026-03-20T12:50:25.510Z</time>
      </trkpt>
      <trkpt lat="51.396475" lon="9.470513">
        <ele>255.623382</ele>
        <time>2026-03-20T12:50:27.707Z</time>
      </trkpt>
      <trkpt lat="51.396171" lon="9.470400">
        <ele>254.738059</ele>
        <time>2026-03-20T12:50:32.849Z</time>
      </trkpt>
      <trkpt lat="51.395893" lon="9.470252">
        <ele>253.907015</ele>
        <time>2026-03-20T12:50:37.658Z</time>
      </trkpt>
      <trkpt lat="51.395095" lon="9.469478">
        <ele>252.013185</ele>
        <time>2026-03-20T12:50:54.004Z</time>
      </trkpt>
      <trkpt lat="51.395061" lon="9.469401">
        <ele>251.921125</ele>
        <time>2026-03-20T12:50:55.069Z</time>
      </trkpt>
      <trkpt lat="51.394991" lon="9.469345">
        <ele>251.798754</ele>
        <time>2026-03-20T12:50:56.442Z</time>
      </trkpt>
      <trkpt lat="51.394869" lon="9.469376">
        <ele>251.605548</ele>
        <time>2026-03-20T12:50:58.643Z</time>
      </trkpt>
      <trkpt lat="51.394785" lon="9.469578">
        <ele>251.368638</ele>
        <time>2026-03-20T12:51:01.333Z</time>
      </trkpt>
      <trkpt lat="51.394716" lon="9.469954">
        <ele>250.986145</ele>
        <time>2026-03-20T12:51:05.820Z</time>
      </trkpt>
      <trkpt lat="51.393864" lon="9.469699">
        <ele>250.328486</ele>
        <time>2026-03-20T12:51:22.824Z</time>
      </trkpt>
      <trkpt lat="51.393332" lon="9.469529">
        <ele>250.679062</ele>
        <time>2026-03-20T12:51:34.470Z</time>
      </trkpt>
      <trkpt lat="51.393259" lon="9.469524">
        <ele>250.726281</ele>
        <time>2026-03-20T12:51:36.221Z</time>
      </trkpt>
      <trkpt lat="51.393168" lon="9.469584">
        <ele>250.789873</ele>
        <time>2026-03-20T12:51:38.678Z</time>
      </trkpt>
      <trkpt lat="51.393059" lon="9.469738">
        <ele>250.883780</ele>
        <time>2026-03-20T12:51:42.542Z</time>
      </trkpt>
      <trkpt lat="51.392990" lon="9.469959">
        <ele>250.983431</ele>
        <time>2026-03-20T12:51:46.948Z</time>
      </trkpt>
      <trkpt lat="51.392870" lon="9.471800">
        <ele>251.511183</ele>
        <time>2026-03-20T12:52:23.733Z</time>
      </trkpt>
      <trkpt lat="51.392883" lon="9.472016">
        <ele>251.555502</ele>
        <time>2026-03-20T12:52:27.454Z</time>
      </trkpt>
      <trkpt lat="51.392955" lon="9.472262">
        <ele>251.610995</ele>
        <time>2026-03-20T12:52:31.781Z</time>
      </trkpt>
      <trkpt lat="51.392869" lon="9.472344">
        <ele>251.643748</ele>
        <time>2026-03-20T12:52:34.147Z</time>
      </trkpt>
      <trkpt lat="51.392617" lon="9.472290">
        <ele>251.726963</ele>
        <time>2026-03-20T12:52:39.592Z</time>
      </trkpt>
      <trkpt lat="51.391261" lon="9.471929">
        <ele>248.912917</ele>
        <time>2026-03-20T12:53:02.727Z</time>
      </trkpt>
      <trkpt lat="51.389724" lon="9.471550">
        <ele>243.118624</ele>
        <time>2026-03-20T12:53:27.157Z</time>
      </trkpt>
      <trkpt lat="51.389437" lon="9.471479">
        <ele>241.845147</ele>
        <time>2026-03-20T12:53:31.570Z</time>
      </trkpt>
      <trkpt lat="51.388259" lon="9.471190">
        <ele>237.142572</ele>
        <time>2026-03-20T12:53:49.713Z</time>
      </trkpt>
      <trkpt lat="51.386590" lon="9.470777">
        <ele>233.117449</ele>
        <time>2026-03-20T12:54:18.197Z</time>
      </trkpt>
      <trkpt lat="51.385875" lon="9.470807">
        <ele>233.670388</ele>
        <time>2026-03-20T12:54:35.793Z</time>
      </trkpt>
      <trkpt lat="51.384141" lon="9.471000">
        <ele>235.876644</ele>
        <time>2026-03-20T12:55:31.138Z</time>
      </trkpt>
      <trkpt lat="51.382484" lon="9.471154">
        <ele>238.460817</ele>
        <time>2026-03-20T12:56:14.904Z</time>
      </trkpt>
      <trkpt lat="51.381492" lon="9.471235">
        <ele>239.812337</ele>
        <time>2026-03-20T12:56:43.121Z</time>
      </trkpt>
      <trkpt lat="51.379830" lon="9.471391">
        <ele>241.406591</ele>
        <time>2026-03-20T12:57:31.009Z</time>
      </trkpt>
      <trkpt lat="51.378585" lon="9.471478">
        <ele>238.855852</ele>
        <time>2026-03-20T12:57:52.690Z</time>
      </trkpt>
      <trkpt lat="51.378489" lon="9.471478">
        <ele>238.613202</ele>
        <time>2026-03-20T12:57:54.210Z</time>
      </trkpt>
      <trkpt lat="51.377451" lon="9.471593">
        <ele>235.446885</ele>
        <time>2026-03-20T12:58:10.716Z</time>
      </trkpt>
      <trkpt lat="51.377093" lon="9.471577">
        <ele>234.074970</ele>
        <time>2026-03-20T12:58:16.324Z</time>
      </trkpt>
      <trkpt lat="51.375597" lon="9.471498">
        <ele>229.025666</ele>
        <time>2026-03-20T12:58:39.901Z</time>
      </trkpt>
      <trkpt lat="51.374425" lon="9.471436">
        <ele>226.248948</ele>
        <time>2026-03-20T12:59:00.165Z</time>
      </trkpt>
      <trkpt lat="51.373671" lon="9.472344">
        <ele>225.647215</ele>
        <time>2026-03-20T12:59:20.441Z</time>
      </trkpt>
      <trkpt lat="51.373458" lon="9.472722">
        <ele>225.555127</ele>
        <time>2026-03-20T12:59:27.771Z</time>
      </trkpt>
      <trkpt lat="51.373303" lon="9.473077">
        <ele>225.476784</ele>
        <time>2026-03-20T12:59:33.784Z</time>
      </trkpt>
      <trkpt lat="51.373290" lon="9.473425">
        <ele>225.413740</ele>
        <time>2026-03-20T12:59:38.473Z</time>
      </trkpt>
      <trkpt lat="51.373277" lon="9.473487">
        <ele>225.401912</ele>
        <time>2026-03-20T12:59:39.340Z</time>
      </trkpt>
      <trkpt lat="51.373257" lon="9.473551">
        <ele>225.388969</ele>
        <time>2026-03-20T12:59:40.287Z</time>
      </trkpt>
      <trkpt lat="51.373238" lon="9.473613">
        <ele>225.376479</ele>
        <time>2026-03-20T12:59:41.211Z</time>
      </trkpt>
      <trkpt lat="51.373200" lon="9.473662">
        <ele>225.362347</ele>
        <time>2026-03-20T12:59:42.245Z</time>
      </trkpt>
      <trkpt lat="51.373099" lon="9.473722">
        <ele>225.411805</ele>
        <time>2026-03-20T12:59:44.531Z</time>
      </trkpt>
      <trkpt lat="51.373019" lon="9.473677">
        <ele>225.475323</ele>
        <time>2026-03-20T12:59:46.311Z</time>
      </trkpt>
      <trkpt lat="51.372954" lon="9.473629">
        <ele>225.528942</ele>
        <time>2026-03-20T12:59:47.802Z</time>
      </trkpt>
      <trkpt lat="51.372940" lon="9.473787">
        <ele>225.603570</ele>
        <time>2026-03-20T12:59:49.866Z</time>
      </trkpt>
      <trkpt lat="51.372685" lon="9.474341">
        <ele>225.925459</ele>
        <time>2026-03-20T12:59:58.818Z</time>
      </trkpt>
      <trkpt lat="51.372527" lon="9.474709">
        <ele>226.134328</ele>
        <time>2026-03-20T13:00:05.014Z</time>
      </trkpt>
      <trkpt lat="51.372390" lon="9.475213">
        <ele>226.391400</ele>
        <time>2026-03-20T13:00:13.626Z</time>
      </trkpt>
      <trkpt lat="51.372285" lon="9.475640">
        <ele>226.606021</ele>
        <time>2026-03-20T13:00:21.838Z</time>
      </trkpt>
      <trkpt lat="51.372365" lon="9.478423">
        <ele>232.670440</ele>
        <time>2026-03-20T13:01:26.837Z</time>
      </trkpt>
      <trkpt lat="51.372410" lon="9.479997">
        <ele>236.275673</ele>
        <time>2026-03-20T13:02:06.664Z</time>
      </trkpt>
      <trkpt lat="51.372422" lon="9.480424">
        <ele>237.251361</ele>
        <time>2026-03-20T13:02:16.883Z</time>
      </trkpt>
      <trkpt lat="51.372439" lon="9.480980">
        <ele>238.522049</ele>
        <time>2026-03-20T13:02:29.684Z</time>
      </trkpt>
      <trkpt lat="51.372645" lon="9.487755">
        <ele>247.047687</ele>
        <time>2026-03-20T13:04:41.100Z</time>
      </trkpt>
      <trkpt lat="51.370186" lon="9.488803">
        <ele>240.723398</ele>
        <time>2026-03-20T13:05:24.612Z</time>
      </trkpt>
      <trkpt lat="51.369946" lon="9.488905">
        <ele>239.710115</ele>
        <time>2026-03-20T13:05:28.277Z</time>
      </trkpt>
      <trkpt lat="51.368985" lon="9.489311">
        <ele>235.117345</ele>
        <time>2026-03-20T13:05:42.692Z</time>
      </trkpt>
      <trkpt lat="51.368959" lon="9.489388">
        <ele>234.827531</ele>
        <time>2026-03-20T13:05:43.475Z</time>
      </trkpt>
      <trkpt lat="51.368038" lon="9.490332">
        <ele>229.029231</ele>
        <time>2026-03-20T13:05:59.939Z</time>
      </trkpt>
      <trkpt lat="51.368040" lon="9.491029">
        <ele>227.182891</ele>
        <time>2026-03-20T13:06:06.641Z</time>
      </trkpt>
      <trkpt lat="51.367995" lon="9.491036">
        <ele>227.036234</ele>
        <time>2026-03-20T13:06:07.321Z</time>
      </trkpt>
      <trkpt lat="51.367026" lon="9.491042">
        <ele>223.892986</ele>
        <time>2026-03-20T13:06:22.887Z</time>
      </trkpt>
      <trkpt lat="51.366193" lon="9.491050">
        <ele>221.736141</ele>
        <time>2026-03-20T13:06:37.351Z</time>
      </trkpt>
      <trkpt lat="51.366210" lon="9.491308">
        <ele>221.534744</ele>
        <time>2026-03-20T13:06:40.437Z</time>
      </trkpt>
      <trkpt lat="51.366014" lon="9.491395">
        <ele>221.281854</ele>
        <time>2026-03-20T13:06:44.468Z</time>
      </trkpt>
      <trkpt lat="51.365546" lon="9.491501">
        <ele>220.694157</ele>
        <time>2026-03-20T13:06:53.974Z</time>
      </trkpt>
      <trkpt lat="51.365382" lon="9.491506">
        <ele>220.490204</ele>
        <time>2026-03-20T13:06:57.265Z</time>
      </trkpt>
      <trkpt lat="51.364541" lon="9.490932">
        <ele>219.054712</ele>
        <time>2026-03-20T13:07:14.467Z</time>
      </trkpt>
      <trkpt lat="51.363042" lon="9.489879">
        <ele>215.125051</ele>
        <time>2026-03-20T13:07:43.290Z</time>
      </trkpt>
      <trkpt lat="51.362996" lon="9.489847">
        <ele>214.883552</ele>
        <time>2026-03-20T13:07:44.096Z</time>
      </trkpt>
      <trkpt lat="51.360717" lon="9.488660">
        <ele>202.606220</ele>
        <time>2026-03-20T13:08:19.693Z</time>
      </trkpt>
      <trkpt lat="51.359043" lon="9.487822">
        <ele>192.719225</ele>
        <time>2026-03-20T13:08:45.548Z</time>
      </trkpt>
      <trkpt lat="51.358463" lon="9.487537">
        <ele>189.312334</ele>
        <time>2026-03-20T13:08:54.574Z</time>
      </trkpt>
      <trkpt lat="51.358310" lon="9.487597">
        <ele>188.427769</ele>
        <time>2026-03-20T13:08:56.917Z</time>
      </trkpt>
      <trkpt lat="51.356832" lon="9.488195">
        <ele>180.375066</ele>
        <time>2026-03-20T13:09:19.644Z</time>
      </trkpt>
      <trkpt lat="51.356618" lon="9.487135">
        <ele>177.236770</ele>
        <time>2026-03-20T13:09:34.114Z</time>
      </trkpt>
      <trkpt lat="51.356559" lon="9.486665">
        <ele>176.356583</ele>
        <time>2026-03-20T13:09:40.612Z</time>
      </trkpt>
      <trkpt lat="51.356516" lon="9.485899">
        <ele>174.944527</ele>
        <time>2026-03-20T13:09:51.323Z</time>
      </trkpt>
      <trkpt lat="51.356480" lon="9.485819">
        <ele>174.763483</ele>
        <time>2026-03-20T13:09:52.723Z</time>
      </trkpt>
      <trkpt lat="51.356480" lon="9.485665">
        <ele>174.480737</ele>
        <time>2026-03-20T13:09:54.935Z</time>
      </trkpt>
      <trkpt lat="51.356530" lon="9.485104">
        <ele>173.440297</ele>
        <time>2026-03-20T13:10:03.368Z</time>
      </trkpt>
      <trkpt lat="51.356464" lon="9.485069">
        <ele>173.235886</ele>
        <time>2026-03-20T13:10:04.622Z</time>
      </trkpt>
      <trkpt lat="51.356193" lon="9.485064">
        <ele>172.601353</ele>
        <time>2026-03-20T13:10:09.981Z</time>
      </trkpt>
      <trkpt lat="51.356058" lon="9.484945">
        <ele>172.630968</ele>
        <time>2026-03-20T13:10:13.223Z</time>
      </trkpt>
      <trkpt lat="51.355658" lon="9.484263">
        <ele>172.743256</ele>
        <time>2026-03-20T13:10:27.127Z</time>
      </trkpt>
      <trkpt lat="51.355617" lon="9.484194">
        <ele>172.754687</ele>
        <time>2026-03-20T13:10:28.604Z</time>
      </trkpt>
      <trkpt lat="51.355534" lon="9.483970">
        <ele>172.785946</ele>
        <time>2026-03-20T13:10:32.698Z</time>
      </trkpt>
      <trkpt lat="51.355499" lon="9.483838">
        <ele>172.803157</ele>
        <time>2026-03-20T13:10:35.051Z</time>
      </trkpt>
      <trkpt lat="51.355454" lon="9.483436">
        <ele>172.852172</ele>
        <time>2026-03-20T13:10:42.072Z</time>
      </trkpt>
      <trkpt lat="51.355238" lon="9.483781">
        <ele>172.910802</ele>
        <time>2026-03-20T13:10:50.802Z</time>
      </trkpt>
      <trkpt lat="51.354726" lon="9.484860">
        <ele>172.657175</ele>
        <time>2026-03-20T13:11:11.805Z</time>
      </trkpt>
      <trkpt lat="51.354704" lon="9.485102">
        <ele>172.596942</ele>
        <time>2026-03-20T13:11:14.976Z</time>
      </trkpt>
      <trkpt lat="51.354653" lon="9.485290">
        <ele>172.546457</ele>
        <time>2026-03-20T13:11:17.606Z</time>
      </trkpt>
      <trkpt lat="51.354517" lon="9.485497">
        <ele>172.472454</ele>
        <time>2026-03-20T13:11:21.342Z</time>
      </trkpt>
      <trkpt lat="51.354348" lon="9.485622">
        <ele>172.399033</ele>
        <time>2026-03-20T13:11:24.916Z</time>
      </trkpt>
      <trkpt lat="51.354223" lon="9.485714">
        <ele>172.344775</ele>
        <time>2026-03-20T13:11:27.514Z</time>
      </trkpt>
      <trkpt lat="51.354048" lon="9.485717">
        <ele>172.275751</ele>
        <time>2026-03-20T13:11:30.696Z</time>
      </trkpt>
      <trkpt lat="51.353932" lon="9.485029">
        <ele>171.782988</ele>
        <time>2026-03-20T13:11:38.618Z</time>
      </trkpt>
      <trkpt lat="51.352281" lon="9.486417">
        <ele>169.345343</ele>
        <time>2026-03-20T13:12:13.477Z</time>
      </trkpt>
      <trkpt lat="51.350581" lon="9.487058">
        <ele>167.481940</ele>
        <time>2026-03-20T13:12:47.369Z</time>
      </trkpt>
      <trkpt lat="51.349427" lon="9.487501">
        <ele>166.112820</ele>
        <time>2026-03-20T13:13:09.553Z</time>
      </trkpt>
      <trkpt lat="51.349306" lon="9.487489">
        <ele>165.972952</ele>
        <time>2026-03-20T13:13:11.791Z</time>
      </trkpt>
      <trkpt lat="51.347920" lon="9.486590">
        <ele>164.710271</ele>
        <time>2026-03-20T13:13:40.983Z</time>
      </trkpt>
      <trkpt lat="51.347520" lon="9.486341">
        <ele>164.363093</ele>
        <time>2026-03-20T13:13:49.890Z</time>
      </trkpt>
      <trkpt lat="51.347431" lon="9.486248">
        <ele>164.330160</ele>
        <time>2026-03-20T13:13:52.095Z</time>
      </trkpt>
      <trkpt lat="51.347302" lon="9.485949">
        <ele>164.299706</ele>
        <time>2026-03-20T13:13:56.747Z</time>
      </trkpt>
      <trkpt lat="51.347155" lon="9.485360">
        <ele>164.246551</ele>
        <time>2026-03-20T13:14:05.159Z</time>
      </trkpt>
      <trkpt lat="51.347079" lon="9.485060">
        <ele>164.219420</ele>
        <time>2026-03-20T13:14:09.577Z</time>
      </trkpt>
      <trkpt lat="51.347073" lon="9.484743">
        <ele>164.192842</ele>
        <time>2026-03-20T13:14:14.022Z</time>
      </trkpt>
      <trkpt lat="51.347173" lon="9.484098">
        <ele>164.137148</ele>
        <time>2026-03-20T13:14:23.304Z</time>
      </trkpt>
      <trkpt lat="51.347235" lon="9.483704">
        <ele>164.103097</ele>
        <time>2026-03-20T13:14:29.155Z</time>
      </trkpt>
      <trkpt lat="51.347338" lon="9.483045">
        <ele>164.256519</ele>
        <time>2026-03-20T13:14:39.313Z</time>
      </trkpt>
      <trkpt lat="51.347367" lon="9.482854">
        <ele>164.305166</ele>
        <time>2026-03-20T13:14:42.455Z</time>
      </trkpt>
      <trkpt lat="51.347280" lon="9.481949">
        <ele>164.531782</ele>
        <time>2026-03-20T13:14:57.536Z</time>
      </trkpt>
      <trkpt lat="51.347129" lon="9.480650">
        <ele>164.785547</ele>
        <time>2026-03-20T13:15:17.749Z</time>
      </trkpt>
      <trkpt lat="51.346900" lon="9.480863">
        <ele>164.725976</ele>
        <time>2026-03-20T13:15:23.606Z</time>
      </trkpt>
      <trkpt lat="51.346367" lon="9.481404">
        <ele>164.584024</ele>
        <time>2026-03-20T13:15:37.063Z</time>
      </trkpt>
      <trkpt lat="51.346136" lon="9.481704">
        <ele>164.517120</ele>
        <time>2026-03-20T13:15:43.114Z</time>
      </trkpt>
      <trkpt lat="51.346015" lon="9.481852">
        <ele>164.482869</ele>
        <time>2026-03-20T13:15:46.213Z</time>
      </trkpt>
      <trkpt lat="51.345768" lon="9.482132">
        <ele>164.414793</ele>
        <time>2026-03-20T13:15:52.480Z</time>
      </trkpt>
      <trkpt lat="51.345619" lon="9.482221">
        <ele>164.378101</ele>
        <time>2026-03-20T13:15:55.808Z</time>
      </trkpt>
      <trkpt lat="51.345311" lon="9.482366">
        <ele>164.303552</ele>
        <time>2026-03-20T13:16:02.591Z</time>
      </trkpt>
      <trkpt lat="51.344593" lon="9.482482">
        <ele>164.135979</ele>
        <time>2026-03-20T13:16:18.376Z</time>
      </trkpt>
      <trkpt lat="51.344275" lon="9.482591">
        <ele>164.060463</ele>
        <time>2026-03-20T13:16:25.248Z</time>
      </trkpt>
      <trkpt lat="51.344090" lon="9.482721">
        <ele>164.013548</ele>
        <time>2026-03-20T13:16:29.564Z</time>
      </trkpt>
      <trkpt lat="51.343449" lon="9.483298">
        <ele>163.822691</ele>
        <time>2026-03-20T13:16:45.446Z</time>
      </trkpt>
      <trkpt lat="51.343364" lon="9.483376">
        <ele>163.796831</ele>
        <time>2026-03-20T13:16:47.554Z</time>
      </trkpt>
      <trkpt lat="51.342602" lon="9.484069">
        <ele>163.565519</ele>
        <time>2026-03-20T13:17:06.564Z</time>
      </trkpt>
      <trkpt lat="51.341997" lon="9.484693">
        <ele>162.742122</ele>
        <time>2026-03-20T13:17:21.149Z</time>
      </trkpt>
      <trkpt lat="51.341724" lon="9.485049">
        <ele>162.227294</ele>
        <time>2026-03-20T13:17:27.623Z</time>
      </trkpt>
      <trkpt lat="51.341597" lon="9.485195">
        <ele>161.998686</ele>
        <time>2026-03-20T13:17:30.414Z</time>
      </trkpt>
      <trkpt lat="51.341448" lon="9.485267">
        <ele>161.771122</ele>
        <time>2026-03-20T13:17:33.153Z</time>
      </trkpt>
      <trkpt lat="51.341455" lon="9.485369">
        <ele>161.677400</ele>
        <time>2026-03-20T13:17:34.693Z</time>
      </trkpt>
      <trkpt lat="51.341448" lon="9.485523">
        <ele>161.536373</ele>
        <time>2026-03-20T13:17:37.001Z</time>
      </trkpt>
      <trkpt lat="51.341444" lon="9.486229">
        <ele>160.891522</ele>
        <time>2026-03-20T13:17:47.464Z</time>
      </trkpt>
      <trkpt lat="51.341432" lon="9.486279">
        <ele>160.832139</ele>
        <time>2026-03-20T13:17:48.249Z</time>
      </trkpt>
      <trkpt lat="51.341461" lon="9.486305">
        <ele>160.771629</ele>
        <time>2026-03-20T13:17:48.828Z</time>
      </trkpt>
      <trkpt lat="51.341589" lon="9.486420">
        <ele>160.504420</ele>
        <time>2026-03-20T13:17:51.374Z</time>
      </trkpt>
      <trkpt lat="51.341607" lon="9.486437">
        <ele>160.466374</ele>
        <time>2026-03-20T13:17:51.737Z</time>
      </trkpt>
      <trkpt lat="51.341586" lon="9.486482">
        <ele>160.402496</ele>
        <time>2026-03-20T13:17:52.350Z</time>
      </trkpt>
      <trkpt lat="51.341009" lon="9.488036">
        <ele>158.346670</ele>
        <time>2026-03-20T13:18:12.363Z</time>
      </trkpt>
      <trkpt lat="51.340966" lon="9.488185">
        <ele>158.160016</ele>
        <time>2026-03-20T13:18:14.263Z</time>
      </trkpt>
      <trkpt lat="51.340879" lon="9.488725">
        <ele>157.557974</ele>
        <time>2026-03-20T13:18:20.727Z</time>
      </trkpt>
      <trkpt lat="51.340774" lon="9.488969">
        <ele>157.348330</ele>
        <time>2026-03-20T13:18:24.171Z</time>
      </trkpt>
      <trkpt lat="51.340598" lon="9.489247">
        <ele>157.068273</ele>
        <time>2026-03-20T13:18:28.801Z</time>
      </trkpt>
      <trkpt lat="51.339159" lon="9.493250">
        <ele>154.269781</ele>
        <time>2026-03-20T13:19:24.407Z</time>
      </trkpt>
      <trkpt lat="51.339056" lon="9.493554">
        <ele>154.089852</ele>
        <time>2026-03-20T13:19:28.921Z</time>
      </trkpt>
      <trkpt lat="51.339057" lon="9.493640">
        <ele>154.078537</ele>
        <time>2026-03-20T13:19:30.066Z</time>
      </trkpt>
      <trkpt lat="51.338956" lon="9.493868">
        <ele>154.092082</ele>
        <time>2026-03-20T13:19:33.842Z</time>
      </trkpt>
      <trkpt lat="51.338825" lon="9.494163">
        <ele>154.109621</ele>
        <time>2026-03-20T13:19:38.828Z</time>
      </trkpt>
      <trkpt lat="51.338686" lon="9.494384">
        <ele>154.124818</ele>
        <time>2026-03-20T13:19:43.285Z</time>
      </trkpt>
      <trkpt lat="51.338500" lon="9.494594">
        <ele>154.142474</ele>
        <time>2026-03-20T13:19:48.583Z</time>
      </trkpt>
      <trkpt lat="51.337348" lon="9.495172">
        <ele>154.113672</ele>
        <time>2026-03-20T13:20:17.041Z</time>
      </trkpt>
      <trkpt lat="51.336992" lon="9.495351">
        <ele>153.973129</ele>
        <time>2026-03-20T13:20:24.902Z</time>
      </trkpt>
      <trkpt lat="51.336631" lon="9.495533">
        <ele>153.830578</ele>
        <time>2026-03-20T13:20:32.495Z</time>
      </trkpt>
      <trkpt lat="51.336247" lon="9.495755">
        <ele>153.676804</ele>
        <time>2026-03-20T13:20:40.726Z</time>
      </trkpt>
      <trkpt lat="51.336040" lon="9.495952">
        <ele>153.586100</ele>
        <time>2026-03-20T13:20:45.577Z</time>
      </trkpt>
      <trkpt lat="51.335937" lon="9.496061">
        <ele>153.539594</ele>
        <time>2026-03-20T13:20:48.084Z</time>
      </trkpt>
      <trkpt lat="51.335704" lon="9.496298">
        <ele>153.457760</ele>
        <time>2026-03-20T13:20:53.788Z</time>
      </trkpt>
      <trkpt lat="51.335424" lon="9.496573">
        <ele>153.360852</ele>
        <time>2026-03-20T13:21:00.698Z</time>
      </trkpt>
      <trkpt lat="51.335396" lon="9.496600">
        <ele>153.351209</ele>
        <time>2026-03-20T13:21:01.385Z</time>
      </trkpt>
      <trkpt lat="51.335158" lon="9.496833">
        <ele>153.268909</ele>
        <time>2026-03-20T13:21:07.282Z</time>
      </trkpt>
      <trkpt lat="51.334095" lon="9.497927">
        <ele>152.911273</ele>
        <time>2026-03-20T13:21:34.797Z</time>
      </trkpt>
      <trkpt lat="51.333874" lon="9.498154">
        <ele>152.844390</ele>
        <time>2026-03-20T13:21:40.219Z</time>
      </trkpt>
      <trkpt lat="51.333644" lon="9.498391">
        <ele>152.774718</ele>
        <time>2026-03-20T13:21:45.985Z</time>
      </trkpt>
      <trkpt lat="51.333266" lon="9.498780">
        <ele>152.660258</ele>
        <time>2026-03-20T13:21:55.613Z</time>
      </trkpt>
      <trkpt lat="51.333220" lon="9.498825">
        <ele>152.646526</ele>
        <time>2026-03-20T13:21:56.768Z</time>
      </trkpt>
      <trkpt lat="51.332953" lon="9.499083">
        <ele>152.567089</ele>
        <time>2026-03-20T13:22:03.371Z</time>
      </trkpt>
      <trkpt lat="51.332639" lon="9.499326">
        <ele>152.348865</ele>
        <time>2026-03-20T13:22:10.721Z</time>
      </trkpt>
      <trkpt lat="51.331586" lon="9.499949">
        <ele>151.540442</ele>
        <time>2026-03-20T13:22:33.817Z</time>
      </trkpt>
      <trkpt lat="51.331251" lon="9.500262">
        <ele>151.261108</ele>
        <time>2026-03-20T13:22:41.026Z</time>
      </trkpt>
      <trkpt lat="51.330569" lon="9.501380">
        <ele>150.081737</ele>
        <time>2026-03-20T13:22:58.714Z</time>
      </trkpt>
      <trkpt lat="51.330495" lon="9.501504">
        <ele>149.951763</ele>
        <time>2026-03-20T13:23:00.674Z</time>
      </trkpt>
      <trkpt lat="51.330364" lon="9.501646">
        <ele>149.759822</ele>
        <time>2026-03-20T13:23:03.591Z</time>
      </trkpt>
      <trkpt lat="51.330013" lon="9.501799">
        <ele>149.318502</ele>
        <time>2026-03-20T13:23:10.561Z</time>
      </trkpt>
      <trkpt lat="51.329815" lon="9.501872">
        <ele>149.072011</ele>
        <time>2026-03-20T13:23:14.669Z</time>
      </trkpt>
      <trkpt lat="51.329660" lon="9.501974">
        <ele>149.133381</ele>
        <time>2026-03-20T13:23:18.184Z</time>
      </trkpt>
      <trkpt lat="51.329334" lon="9.502291">
        <ele>149.273515</ele>
        <time>2026-03-20T13:23:26.553Z</time>
      </trkpt>
      <trkpt lat="51.328764" lon="9.502899">
        <ele>149.525163</ele>
        <time>2026-03-20T13:23:43.143Z</time>
      </trkpt>
      <trkpt lat="51.328772" lon="9.503372">
        <ele>149.633780</ele>
        <time>2026-03-20T13:23:50.767Z</time>
      </trkpt>
      <trkpt lat="51.328641" lon="9.504016">
        <ele>149.826857</ele>
        <time>2026-03-20T13:24:02.260Z</time>
      </trkpt>
      <trkpt lat="51.328423" lon="9.505195">
        <ele>150.296565</ele>
        <time>2026-03-20T13:24:22.273Z</time>
      </trkpt>
      <trkpt lat="51.327804" lon="9.505665">
        <ele>150.715442</ele>
        <time>2026-03-20T13:24:39.178Z</time>
      </trkpt>
      <trkpt lat="51.327307" lon="9.505964">
        <ele>150.446896</ele>
        <time>2026-03-20T13:24:50.385Z</time>
      </trkpt>
      <trkpt lat="51.327033" lon="9.506202">
        <ele>150.093395</ele>
        <time>2026-03-20T13:24:56.389Z</time>
      </trkpt>
      <trkpt lat="51.326052" lon="9.506866">
        <ele>148.885642</ele>
        <time>2026-03-20T13:25:15.866Z</time>
      </trkpt>
      <trkpt lat="51.325995" lon="9.506970">
        <ele>148.793034</ele>
        <time>2026-03-20T13:25:17.402Z</time>
      </trkpt>
      <trkpt lat="51.325808" lon="9.507054">
        <ele>148.802925</ele>
        <time>2026-03-20T13:25:20.890Z</time>
      </trkpt>
      <trkpt lat="51.325614" lon="9.507096">
        <ele>148.812894</ele>
        <time>2026-03-20T13:25:24.474Z</time>
      </trkpt>
      <trkpt lat="51.325138" lon="9.507184">
        <ele>148.837296</ele>
        <time>2026-03-20T13:25:33.661Z</time>
      </trkpt>
      <trkpt lat="51.324355" lon="9.507292">
        <ele>148.877318</ele>
        <time>2026-03-20T13:25:52.587Z</time>
      </trkpt>
      <trkpt lat="51.324208" lon="9.507298">
        <ele>148.903593</ele>
        <time>2026-03-20T13:25:57.368Z</time>
      </trkpt>
      <trkpt lat="51.323569" lon="9.507176">
        <ele>150.441148</ele>
        <time>2026-03-20T13:26:20.655Z</time>
      </trkpt>
      <trkpt lat="51.323502" lon="9.508113">
        <ele>151.849303</ele>
        <time>2026-03-20T13:26:41.302Z</time>
      </trkpt>
      <trkpt lat="51.323475" lon="9.508432">
        <ele>152.329948</ele>
        <time>2026-03-20T13:26:47.792Z</time>
      </trkpt>
      <trkpt lat="51.323407" lon="9.508596">
        <ele>152.623812</ele>
        <time>2026-03-20T13:26:51.600Z</time>
      </trkpt>
      <trkpt lat="51.323038" lon="9.508552">
        <ele>152.926033</ele>
        <time>2026-03-20T13:27:02.333Z</time>
      </trkpt>
      <trkpt lat="51.322849" lon="9.508526">
        <ele>152.570552</ele>
        <time>2026-03-20T13:27:06.762Z</time>
      </trkpt>
      <trkpt lat="51.322706" lon="9.508510">
        <ele>152.301925</ele>
        <time>2026-03-20T13:27:09.650Z</time>
      </trkpt>
      <trkpt lat="51.322262" lon="9.508459">
        <ele>151.467757</ele>
        <time>2026-03-20T13:27:17.432Z</time>
      </trkpt>
      <trkpt lat="51.322047" lon="9.508427">
        <ele>151.063121</ele>
        <time>2026-03-20T13:27:21.024Z</time>
      </trkpt>
      <trkpt lat="51.321875" lon="9.508403">
        <ele>150.739581</ele>
        <time>2026-03-20T13:27:23.849Z</time>
      </trkpt>
      <trkpt lat="51.321416" lon="9.508232">
        <ele>149.856440</ele>
        <time>2026-03-20T13:27:31.347Z</time>
      </trkpt>
      <trkpt lat="51.320748" lon="9.507967">
        <ele>147.471242</ele>
        <time>2026-03-20T13:27:42.092Z</time>
      </trkpt>
      <trkpt lat="51.320405" lon="9.507829">
        <ele>146.225053</ele>
        <time>2026-03-20T13:27:47.722Z</time>
      </trkpt>
      <trkpt lat="51.320139" lon="9.507694">
        <ele>145.241778</ele>
        <time>2026-03-20T13:27:52.167Z</time>
      </trkpt>
      <trkpt lat="51.320127" lon="9.507684">
        <ele>145.194105</ele>
        <time>2026-03-20T13:27:52.384Z</time>
      </trkpt>
      <trkpt lat="51.319875" lon="9.507533">
        <ele>144.245957</ele>
        <time>2026-03-20T13:27:56.670Z</time>
      </trkpt>
      <trkpt lat="51.319658" lon="9.507368">
        <ele>143.451715</ele>
        <time>2026-03-20T13:28:00.525Z</time>
      </trkpt>
      <trkpt lat="51.319344" lon="9.508154">
        <ele>142.844127</ele>
        <time>2026-03-20T13:28:10.833Z</time>
      </trkpt>
      <trkpt lat="51.319169" lon="9.508626">
        <ele>142.486676</ele>
        <time>2026-03-20T13:28:17.595Z</time>
      </trkpt>
      <trkpt lat="51.319162" lon="9.508719">
        <ele>142.425665</ele>
        <time>2026-03-20T13:28:18.773Z</time>
      </trkpt>
      <trkpt lat="51.319128" lon="9.508657">
        <ele>142.371942</ele>
        <time>2026-03-20T13:28:19.815Z</time>
      </trkpt>
      <trkpt lat="51.319093" lon="9.508620">
        <ele>142.328224</ele>
        <time>2026-03-20T13:28:20.638Z</time>
      </trkpt>
      <trkpt lat="51.318976" lon="9.508496">
        <ele>142.181970</ele>
        <time>2026-03-20T13:28:23.432Z</time>
      </trkpt>
      <trkpt lat="51.318924" lon="9.508437">
        <ele>142.115536</ele>
        <time>2026-03-20T13:28:24.751Z</time>
      </trkpt>
      <trkpt lat="51.318889" lon="9.508448">
        <ele>142.078364</ele>
        <time>2026-03-20T13:28:25.463Z</time>
      </trkpt>
      <trkpt lat="51.318837" lon="9.508433">
        <ele>142.023298</ele>
        <time>2026-03-20T13:28:26.559Z</time>
      </trkpt>
      <trkpt lat="51.318680" lon="9.508265">
        <ele>141.826463</ele>
        <time>2026-03-20T13:28:30.562Z</time>
      </trkpt>
      <trkpt lat="51.317952" lon="9.507506">
        <ele>142.243404</ele>
        <time>2026-03-20T13:28:52.318Z</time>
      </trkpt>
      <trkpt lat="51.317555" lon="9.507076">
        <ele>142.717888</ele>
        <time>2026-03-20T13:29:05.678Z</time>
      </trkpt>
      <trkpt lat="51.316733" lon="9.506190">
        <ele>143.673194</ele>
        <time>2026-03-20T13:29:32.660Z</time>
      </trkpt>
      <trkpt lat="51.316385" lon="9.505770">
        <ele>144.069999</ele>
        <time>2026-03-20T13:29:44.170Z</time>
      </trkpt>
      <trkpt lat="51.316176" lon="9.505483">
        <ele>144.320718</ele>
        <time>2026-03-20T13:29:51.435Z</time>
      </trkpt>
      <trkpt lat="51.316078" lon="9.505339">
        <ele>144.441841</ele>
        <time>2026-03-20T13:29:54.930Z</time>
      </trkpt>
      <trkpt lat="51.316043" lon="9.505293">
        <ele>144.483073</ele>
        <time>2026-03-20T13:29:56.148Z</time>
      </trkpt>
      <trkpt lat="51.315955" lon="9.505174">
        <ele>144.587959</ele>
        <time>2026-03-20T13:29:59.147Z</time>
      </trkpt>
      <trkpt lat="51.315900" lon="9.505100">
        <ele>144.653376</ele>
        <time>2026-03-20T13:30:01.047Z</time>
      </trkpt>
      <trkpt lat="51.315857" lon="9.505043">
        <ele>144.704208</ele>
        <time>2026-03-20T13:30:02.494Z</time>
      </trkpt>
      <trkpt lat="51.315833" lon="9.505087">
        <ele>144.737435</ele>
        <time>2026-03-20T13:30:03.739Z</time>
      </trkpt>
      <trkpt lat="51.315670" lon="9.504898">
        <ele>144.920683</ele>
        <time>2026-03-20T13:30:10.329Z</time>
      </trkpt>
      <trkpt lat="51.315449" lon="9.504426">
        <ele>145.016688</ele>
        <time>2026-03-20T13:30:19.220Z</time>
      </trkpt>
      <trkpt lat="51.315174" lon="9.503756">
        <ele>145.016688</ele>
        <time>2026-03-20T13:30:30.651Z</time>
      </trkpt>
      <trkpt lat="51.315170" lon="9.503713">
        <ele>145.016688</ele>
        <time>2026-03-20T13:30:31.247Z</time>
      </trkpt>
      <trkpt lat="51.315146" lon="9.503651">
        <ele>145.016688</ele>
        <time>2026-03-20T13:30:32.241Z</time>
      </trkpt>
      <trkpt lat="51.315137" lon="9.503669">
        <ele>145.016688</ele>
        <time>2026-03-20T13:30:32.564Z</time>
      </trkpt>
      <trkpt lat="51.315103" lon="9.503709">
        <ele>145.016688</ele>
        <time>2026-03-20T13:30:33.560Z</time>
      </trkpt>
      <trkpt lat="51.315016" lon="9.503812">
        <ele>145.016688</ele>
        <time>2026-03-20T13:30:35.960Z</time>
      </trkpt>
      <trkpt lat="51.314959" lon="9.503877">
        <ele>145.016688</ele>
        <time>2026-03-20T13:30:37.599Z</time>
      </trkpt>
      <trkpt lat="51.314973" lon="9.503910">
        <ele>145.016688</ele>
        <time>2026-03-20T13:30:38.277Z</time>
      </trkpt>
      <trkpt lat="51.314704" lon="9.504208">
        <ele>145.016688</ele>
        <time>2026-03-20T13:30:45.280Z</time>
      </trkpt>
    </trkseg>
  </trk>
</gpx>